<?xml version="1.0" encoding="UTF-8" standalone="no" ?>
<gpx xmlns="http://www.topografix.com/GPX/1/1" xmlns:xsi="http://www.w3.org/2001/XMLSchema-instance" xsi:schemaLocation="http://www.topografix.com/GPX/1/1 http://www.topografix.com/GPX/1/1/gpx.xsd" version="1.1" creator="VisuGPX - https://www.visugpx.com">
  <metadata>
    <name>Fréhel cap d'Erquy</name>
    <desc><![CDATA[De Fréhel à  d'Erquy par le vélo route EV4 en aller retour avec un crochet par le cap d'Erquy]]></desc>
  </metadata>
  <trk>
    <name><![CDATA[Fréhel cap d'Erquy]]></name>
    <cmt><![CDATA[À partir de la Piste Active]]></cmt>
    <trkseg>
      <trkpt lat="48.64713" lon="-2.36772">
        <ele>57.296875</ele>
        <time>2019-10-10T08:03:32.000Z</time>
      </trkpt>
      <trkpt lat="48.64727" lon="-2.36767">
        <ele>51.660156</ele>
        <time>2019-10-10T08:04:07.000Z</time>
      </trkpt>
      <trkpt lat="48.64727" lon="-2.3677">
        <ele>63</ele>
        <time>2019-10-10T08:15:28.000Z</time>
      </trkpt>
      <trkpt lat="48.64719" lon="-2.36779">
        <ele>58.097656</ele>
        <time>2019-10-10T08:19:27.000Z</time>
      </trkpt>
      <trkpt lat="48.64716" lon="-2.36794">
        <ele>57.796875</ele>
        <time>2019-10-10T08:19:34.000Z</time>
      </trkpt>
      <trkpt lat="48.64683" lon="-2.36964">
        <ele>58.199219</ele>
        <time>2019-10-10T08:20:24.000Z</time>
      </trkpt>
      <trkpt lat="48.64683" lon="-2.3698">
        <ele>58.597656</ele>
        <time>2019-10-10T08:20:27.000Z</time>
      </trkpt>
      <trkpt lat="48.6468" lon="-2.36996">
        <ele>59.097656</ele>
        <time>2019-10-10T08:20:31.000Z</time>
      </trkpt>
      <trkpt lat="48.64673" lon="-2.37007">
        <ele>59.699219</ele>
        <time>2019-10-10T08:20:37.000Z</time>
      </trkpt>
      <trkpt lat="48.6467" lon="-2.3702">
        <ele>60.296875</ele>
        <time>2019-10-10T08:20:41.000Z</time>
      </trkpt>
      <trkpt lat="48.64665" lon="-2.3705">
        <ele>60.898438</ele>
        <time>2019-10-10T08:20:49.000Z</time>
      </trkpt>
      <trkpt lat="48.64671" lon="-2.37062">
        <ele>61.296875</ele>
        <time>2019-10-10T08:20:53.000Z</time>
      </trkpt>
      <trkpt lat="48.64678" lon="-2.37072">
        <ele>61.398438</ele>
        <time>2019-10-10T08:20:56.000Z</time>
      </trkpt>
      <trkpt lat="48.64685" lon="-2.37083">
        <ele>61.5</ele>
        <time>2019-10-10T08:20:59.000Z</time>
      </trkpt>
      <trkpt lat="48.64694" lon="-2.37092">
        <ele>61.699219</ele>
        <time>2019-10-10T08:21:02.000Z</time>
      </trkpt>
      <trkpt lat="48.64711" lon="-2.37112">
        <ele>61.796875</ele>
        <time>2019-10-10T08:21:08.000Z</time>
      </trkpt>
      <trkpt lat="48.64726" lon="-2.37132">
        <ele>61.5</ele>
        <time>2019-10-10T08:21:14.000Z</time>
      </trkpt>
      <trkpt lat="48.64731" lon="-2.37146">
        <ele>61.796875</ele>
        <time>2019-10-10T08:21:18.000Z</time>
      </trkpt>
      <trkpt lat="48.64727" lon="-2.37161">
        <ele>62.199219</ele>
        <time>2019-10-10T08:21:22.000Z</time>
      </trkpt>
      <trkpt lat="48.64719" lon="-2.37173">
        <ele>62.898438</ele>
        <time>2019-10-10T08:21:26.000Z</time>
      </trkpt>
      <trkpt lat="48.64709" lon="-2.37181">
        <ele>63.398438</ele>
        <time>2019-10-10T08:21:30.000Z</time>
      </trkpt>
      <trkpt lat="48.64699" lon="-2.37185">
        <ele>63</ele>
        <time>2019-10-10T08:21:34.000Z</time>
      </trkpt>
      <trkpt lat="48.64687" lon="-2.37187">
        <ele>61.699219</ele>
        <time>2019-10-10T08:21:38.000Z</time>
      </trkpt>
      <trkpt lat="48.64674" lon="-2.37192">
        <ele>60.5</ele>
        <time>2019-10-10T08:21:41.000Z</time>
      </trkpt>
      <trkpt lat="48.64664" lon="-2.37197">
        <ele>59</ele>
        <time>2019-10-10T08:21:43.000Z</time>
      </trkpt>
      <trkpt lat="48.64652" lon="-2.37205">
        <ele>57.296875</ele>
        <time>2019-10-10T08:21:45.000Z</time>
      </trkpt>
      <trkpt lat="48.64539" lon="-2.37292">
        <ele>48.699219</ele>
        <time>2019-10-10T08:22:05.000Z</time>
      </trkpt>
      <trkpt lat="48.64418" lon="-2.3739">
        <ele>54.097656</ele>
        <time>2019-10-10T08:22:44.000Z</time>
      </trkpt>
      <trkpt lat="48.64397" lon="-2.37404">
        <ele>54.398438</ele>
        <time>2019-10-10T08:22:50.000Z</time>
      </trkpt>
      <trkpt lat="48.64357" lon="-2.37427">
        <ele>56.097656</ele>
        <time>2019-10-10T08:23:02.000Z</time>
      </trkpt>
      <trkpt lat="48.64348" lon="-2.37435">
        <ele>56.199219</ele>
        <time>2019-10-10T08:23:05.000Z</time>
      </trkpt>
      <trkpt lat="48.64318" lon="-2.3746">
        <ele>56.398438</ele>
        <time>2019-10-10T08:23:14.000Z</time>
      </trkpt>
      <trkpt lat="48.64308" lon="-2.37466">
        <ele>56.5</ele>
        <time>2019-10-10T08:23:17.000Z</time>
      </trkpt>
      <trkpt lat="48.64297" lon="-2.37471">
        <ele>56.5</ele>
        <time>2019-10-10T08:23:20.000Z</time>
      </trkpt>
      <trkpt lat="48.64285" lon="-2.37473">
        <ele>56.597656</ele>
        <time>2019-10-10T08:23:23.000Z</time>
      </trkpt>
      <trkpt lat="48.64273" lon="-2.37474">
        <ele>56.796875</ele>
        <time>2019-10-10T08:23:26.000Z</time>
      </trkpt>
      <trkpt lat="48.6417" lon="-2.37478">
        <ele>58.796875</ele>
        <time>2019-10-10T08:23:53.000Z</time>
      </trkpt>
      <trkpt lat="48.64158" lon="-2.37483">
        <ele>58.898438</ele>
        <time>2019-10-10T08:23:56.000Z</time>
      </trkpt>
      <trkpt lat="48.64148" lon="-2.37491">
        <ele>59</ele>
        <time>2019-10-10T08:23:59.000Z</time>
      </trkpt>
      <trkpt lat="48.64138" lon="-2.37502">
        <ele>59.296875</ele>
        <time>2019-10-10T08:24:02.000Z</time>
      </trkpt>
      <trkpt lat="48.64129" lon="-2.37513">
        <ele>59.699219</ele>
        <time>2019-10-10T08:24:05.000Z</time>
      </trkpt>
      <trkpt lat="48.64086" lon="-2.37566">
        <ele>60.699219</ele>
        <time>2019-10-10T08:24:20.000Z</time>
      </trkpt>
      <trkpt lat="48.64059" lon="-2.37595">
        <ele>59.699219</ele>
        <time>2019-10-10T08:24:27.000Z</time>
      </trkpt>
      <trkpt lat="48.64052" lon="-2.37605">
        <ele>59.5</ele>
        <time>2019-10-10T08:24:29.000Z</time>
      </trkpt>
      <trkpt lat="48.64045" lon="-2.37616">
        <ele>59.199219</ele>
        <time>2019-10-10T08:24:31.000Z</time>
      </trkpt>
      <trkpt lat="48.64037" lon="-2.37629">
        <ele>59.097656</ele>
        <time>2019-10-10T08:24:34.000Z</time>
      </trkpt>
      <trkpt lat="48.64037" lon="-2.37645">
        <ele>59.097656</ele>
        <time>2019-10-10T08:24:38.000Z</time>
      </trkpt>
      <trkpt lat="48.64046" lon="-2.37655">
        <ele>59</ele>
        <time>2019-10-10T08:24:41.000Z</time>
      </trkpt>
      <trkpt lat="48.64101" lon="-2.37723">
        <ele>58.296875</ele>
        <time>2019-10-10T08:24:56.000Z</time>
      </trkpt>
      <trkpt lat="48.64106" lon="-2.3774">
        <ele>58.398438</ele>
        <time>2019-10-10T08:24:59.000Z</time>
      </trkpt>
      <trkpt lat="48.64103" lon="-2.37758">
        <ele>58.398438</ele>
        <time>2019-10-10T08:25:02.000Z</time>
      </trkpt>
      <trkpt lat="48.64097" lon="-2.37776">
        <ele>58.398438</ele>
        <time>2019-10-10T08:25:05.000Z</time>
      </trkpt>
      <trkpt lat="48.64055" lon="-2.37915">
        <ele>59</ele>
        <time>2019-10-10T08:25:28.000Z</time>
      </trkpt>
      <trkpt lat="48.64046" lon="-2.37938">
        <ele>59.199219</ele>
        <time>2019-10-10T08:25:32.000Z</time>
      </trkpt>
      <trkpt lat="48.64012" lon="-2.38019">
        <ele>59.398438</ele>
        <time>2019-10-10T08:25:46.000Z</time>
      </trkpt>
      <trkpt lat="48.64007" lon="-2.38038">
        <ele>59.296875</ele>
        <time>2019-10-10T08:25:49.000Z</time>
      </trkpt>
      <trkpt lat="48.63997" lon="-2.38082">
        <ele>58.898438</ele>
        <time>2019-10-10T08:25:56.000Z</time>
      </trkpt>
      <trkpt lat="48.63995" lon="-2.38096">
        <ele>58.796875</ele>
        <time>2019-10-10T08:25:58.000Z</time>
      </trkpt>
      <trkpt lat="48.63992" lon="-2.38123">
        <ele>58.699219</ele>
        <time>2019-10-10T08:26:02.000Z</time>
      </trkpt>
      <trkpt lat="48.63991" lon="-2.38137">
        <ele>58.5</ele>
        <time>2019-10-10T08:26:04.000Z</time>
      </trkpt>
      <trkpt lat="48.6399" lon="-2.38166">
        <ele>58.199219</ele>
        <time>2019-10-10T08:26:08.000Z</time>
      </trkpt>
      <trkpt lat="48.6399" lon="-2.38182">
        <ele>58</ele>
        <time>2019-10-10T08:26:10.000Z</time>
      </trkpt>
      <trkpt lat="48.63992" lon="-2.38197">
        <ele>57.898438</ele>
        <time>2019-10-10T08:26:12.000Z</time>
      </trkpt>
      <trkpt lat="48.64003" lon="-2.38297">
        <ele>58.097656</ele>
        <time>2019-10-10T08:26:28.000Z</time>
      </trkpt>
      <trkpt lat="48.64002" lon="-2.38333">
        <ele>58.296875</ele>
        <time>2019-10-10T08:26:34.000Z</time>
      </trkpt>
      <trkpt lat="48.64002" lon="-2.38352">
        <ele>58.296875</ele>
        <time>2019-10-10T08:26:37.000Z</time>
      </trkpt>
      <trkpt lat="48.64003" lon="-2.3837">
        <ele>58.199219</ele>
        <time>2019-10-10T08:26:40.000Z</time>
      </trkpt>
      <trkpt lat="48.64008" lon="-2.38386">
        <ele>58.199219</ele>
        <time>2019-10-10T08:26:43.000Z</time>
      </trkpt>
      <trkpt lat="48.64018" lon="-2.38397">
        <ele>58.296875</ele>
        <time>2019-10-10T08:26:46.000Z</time>
      </trkpt>
      <trkpt lat="48.64027" lon="-2.3841">
        <ele>58.398438</ele>
        <time>2019-10-10T08:26:49.000Z</time>
      </trkpt>
      <trkpt lat="48.64031" lon="-2.38427">
        <ele>58.398438</ele>
        <time>2019-10-10T08:26:52.000Z</time>
      </trkpt>
      <trkpt lat="48.64032" lon="-2.38444">
        <ele>58.199219</ele>
        <time>2019-10-10T08:26:55.000Z</time>
      </trkpt>
      <trkpt lat="48.64032" lon="-2.38458">
        <ele>58.097656</ele>
        <time>2019-10-10T08:26:58.000Z</time>
      </trkpt>
      <trkpt lat="48.6403" lon="-2.38474">
        <ele>58.199219</ele>
        <time>2019-10-10T08:27:02.000Z</time>
      </trkpt>
      <trkpt lat="48.64027" lon="-2.38487">
        <ele>64</ele>
        <time>2019-10-10T08:27:07.000Z</time>
      </trkpt>
      <trkpt lat="48.64021" lon="-2.38498">
        <ele>63.5</ele>
        <time>2019-10-10T08:28:19.000Z</time>
      </trkpt>
      <trkpt lat="48.64021" lon="-2.38514">
        <ele>62.898438</ele>
        <time>2019-10-10T08:28:25.000Z</time>
      </trkpt>
      <trkpt lat="48.64027" lon="-2.38525">
        <ele>62.5</ele>
        <time>2019-10-10T08:28:29.000Z</time>
      </trkpt>
      <trkpt lat="48.6404" lon="-2.38548">
        <ele>61.796875</ele>
        <time>2019-10-10T08:28:35.000Z</time>
      </trkpt>
      <trkpt lat="48.64099" lon="-2.38641">
        <ele>60.296875</ele>
        <time>2019-10-10T08:28:56.000Z</time>
      </trkpt>
      <trkpt lat="48.64109" lon="-2.38652">
        <ele>59.898438</ele>
        <time>2019-10-10T08:28:59.000Z</time>
      </trkpt>
      <trkpt lat="48.64208" lon="-2.38776">
        <ele>58.296875</ele>
        <time>2019-10-10T08:29:29.000Z</time>
      </trkpt>
      <trkpt lat="48.64285" lon="-2.38863">
        <ele>56</ele>
        <time>2019-10-10T08:29:53.000Z</time>
      </trkpt>
      <trkpt lat="48.64291" lon="-2.38875">
        <ele>55.796875</ele>
        <time>2019-10-10T08:29:57.000Z</time>
      </trkpt>
      <trkpt lat="48.64286" lon="-2.38892">
        <ele>55.699219</ele>
        <time>2019-10-10T08:30:01.000Z</time>
      </trkpt>
      <trkpt lat="48.64278" lon="-2.38907">
        <ele>55.597656</ele>
        <time>2019-10-10T08:30:04.000Z</time>
      </trkpt>
      <trkpt lat="48.64104" lon="-2.3923">
        <ele>47.296875</ele>
        <time>2019-10-10T08:31:05.000Z</time>
      </trkpt>
      <trkpt lat="48.64068" lon="-2.39317">
        <ele>44.097656</ele>
        <time>2019-10-10T08:31:13.000Z</time>
      </trkpt>
      <trkpt lat="48.64062" lon="-2.39336">
        <ele>44.597656</ele>
        <time>2019-10-10T08:31:15.000Z</time>
      </trkpt>
      <trkpt lat="48.64058" lon="-2.39352">
        <ele>45.5</ele>
        <time>2019-10-10T08:31:17.000Z</time>
      </trkpt>
      <trkpt lat="48.64055" lon="-2.39371">
        <ele>46.398438</ele>
        <time>2019-10-10T08:31:20.000Z</time>
      </trkpt>
      <trkpt lat="48.64054" lon="-2.39385">
        <ele>47</ele>
        <time>2019-10-10T08:31:23.000Z</time>
      </trkpt>
      <trkpt lat="48.64054" lon="-2.39399">
        <ele>47.296875</ele>
        <time>2019-10-10T08:31:26.000Z</time>
      </trkpt>
      <trkpt lat="48.64056" lon="-2.39414">
        <ele>47.097656</ele>
        <time>2019-10-10T08:31:29.000Z</time>
      </trkpt>
      <trkpt lat="48.64061" lon="-2.39446">
        <ele>46.699219</ele>
        <time>2019-10-10T08:31:34.000Z</time>
      </trkpt>
      <trkpt lat="48.64106" lon="-2.39664">
        <ele>37.199219</ele>
        <time>2019-10-10T08:32:00.000Z</time>
      </trkpt>
      <trkpt lat="48.64117" lon="-2.39709">
        <ele>34.597656</ele>
        <time>2019-10-10T08:32:07.000Z</time>
      </trkpt>
      <trkpt lat="48.64116" lon="-2.39724">
        <ele>34.296875</ele>
        <time>2019-10-10T08:32:10.000Z</time>
      </trkpt>
      <trkpt lat="48.64114" lon="-2.39742">
        <ele>34.296875</ele>
        <time>2019-10-10T08:32:13.000Z</time>
      </trkpt>
      <trkpt lat="48.64115" lon="-2.39758">
        <ele>34.398438</ele>
        <time>2019-10-10T08:32:16.000Z</time>
      </trkpt>
      <trkpt lat="48.64116" lon="-2.39775">
        <ele>34.097656</ele>
        <time>2019-10-10T08:32:20.000Z</time>
      </trkpt>
      <trkpt lat="48.64115" lon="-2.39791">
        <ele>33.296875</ele>
        <time>2019-10-10T08:32:24.000Z</time>
      </trkpt>
      <trkpt lat="48.64108" lon="-2.39805">
        <ele>32.796875</ele>
        <time>2019-10-10T08:32:28.000Z</time>
      </trkpt>
      <trkpt lat="48.641" lon="-2.39813">
        <ele>32.597656</ele>
        <time>2019-10-10T08:32:31.000Z</time>
      </trkpt>
      <trkpt lat="48.64091" lon="-2.39819">
        <ele>31.796875</ele>
        <time>2019-10-10T08:32:34.000Z</time>
      </trkpt>
      <trkpt lat="48.6408" lon="-2.39822">
        <ele>32.097656</ele>
        <time>2019-10-10T08:32:38.000Z</time>
      </trkpt>
      <trkpt lat="48.64069" lon="-2.39825">
        <ele>33</ele>
        <time>2019-10-10T08:32:42.000Z</time>
      </trkpt>
      <trkpt lat="48.64057" lon="-2.39826">
        <ele>34.097656</ele>
        <time>2019-10-10T08:32:46.000Z</time>
      </trkpt>
      <trkpt lat="48.64046" lon="-2.39825">
        <ele>34.796875</ele>
        <time>2019-10-10T08:32:50.000Z</time>
      </trkpt>
      <trkpt lat="48.64013" lon="-2.3982">
        <ele>38.296875</ele>
        <time>2019-10-10T08:33:01.000Z</time>
      </trkpt>
      <trkpt lat="48.64004" lon="-2.39817">
        <ele>39.097656</ele>
        <time>2019-10-10T08:33:04.000Z</time>
      </trkpt>
      <trkpt lat="48.63995" lon="-2.39813">
        <ele>39.796875</ele>
        <time>2019-10-10T08:33:07.000Z</time>
      </trkpt>
      <trkpt lat="48.63976" lon="-2.39803">
        <ele>41.097656</ele>
        <time>2019-10-10T08:33:13.000Z</time>
      </trkpt>
      <trkpt lat="48.63959" lon="-2.39791">
        <ele>42.398438</ele>
        <time>2019-10-10T08:33:19.000Z</time>
      </trkpt>
      <trkpt lat="48.6395" lon="-2.39788">
        <ele>43</ele>
        <time>2019-10-10T08:33:22.000Z</time>
      </trkpt>
      <trkpt lat="48.6394" lon="-2.39788">
        <ele>43.796875</ele>
        <time>2019-10-10T08:33:25.000Z</time>
      </trkpt>
      <trkpt lat="48.6393" lon="-2.39792">
        <ele>44.398438</ele>
        <time>2019-10-10T08:33:28.000Z</time>
      </trkpt>
      <trkpt lat="48.6392" lon="-2.398">
        <ele>45.199219</ele>
        <time>2019-10-10T08:33:32.000Z</time>
      </trkpt>
      <trkpt lat="48.63911" lon="-2.39811">
        <ele>45.796875</ele>
        <time>2019-10-10T08:33:36.000Z</time>
      </trkpt>
      <trkpt lat="48.63902" lon="-2.39824">
        <ele>46.5</ele>
        <time>2019-10-10T08:33:40.000Z</time>
      </trkpt>
      <trkpt lat="48.63897" lon="-2.39835">
        <ele>46.898438</ele>
        <time>2019-10-10T08:33:43.000Z</time>
      </trkpt>
      <trkpt lat="48.63893" lon="-2.39851">
        <ele>46.898438</ele>
        <time>2019-10-10T08:33:47.000Z</time>
      </trkpt>
      <trkpt lat="48.63892" lon="-2.39867">
        <ele>46.296875</ele>
        <time>2019-10-10T08:33:51.000Z</time>
      </trkpt>
      <trkpt lat="48.63897" lon="-2.3988">
        <ele>45.296875</ele>
        <time>2019-10-10T08:33:55.000Z</time>
      </trkpt>
      <trkpt lat="48.63904" lon="-2.3989">
        <ele>44.199219</ele>
        <time>2019-10-10T08:33:58.000Z</time>
      </trkpt>
      <trkpt lat="48.63913" lon="-2.39894">
        <ele>42.296875</ele>
        <time>2019-10-10T08:34:01.000Z</time>
      </trkpt>
      <trkpt lat="48.63924" lon="-2.39903">
        <ele>41</ele>
        <time>2019-10-10T08:34:04.000Z</time>
      </trkpt>
      <trkpt lat="48.63956" lon="-2.39922">
        <ele>35</ele>
        <time>2019-10-10T08:34:12.000Z</time>
      </trkpt>
      <trkpt lat="48.63963" lon="-2.3993">
        <ele>33.796875</ele>
        <time>2019-10-10T08:34:13.000Z</time>
      </trkpt>
      <trkpt lat="48.63974" lon="-2.39936">
        <ele>33</ele>
        <time>2019-10-10T08:34:15.000Z</time>
      </trkpt>
      <trkpt lat="48.64005" lon="-2.39954">
        <ele>30.699219</ele>
        <time>2019-10-10T08:34:21.000Z</time>
      </trkpt>
      <trkpt lat="48.64013" lon="-2.39961">
        <ele>30.097656</ele>
        <time>2019-10-10T08:34:23.000Z</time>
      </trkpt>
      <trkpt lat="48.64018" lon="-2.39979">
        <ele>30.199219</ele>
        <time>2019-10-10T08:34:26.000Z</time>
      </trkpt>
      <trkpt lat="48.64013" lon="-2.39995">
        <ele>30.398438</ele>
        <time>2019-10-10T08:34:29.000Z</time>
      </trkpt>
      <trkpt lat="48.64004" lon="-2.40002">
        <ele>30.5</ele>
        <time>2019-10-10T08:34:32.000Z</time>
      </trkpt>
      <trkpt lat="48.63993" lon="-2.40009">
        <ele>30.097656</ele>
        <time>2019-10-10T08:34:35.000Z</time>
      </trkpt>
      <trkpt lat="48.63985" lon="-2.40013">
        <ele>29.398438</ele>
        <time>2019-10-10T08:34:37.000Z</time>
      </trkpt>
      <trkpt lat="48.63975" lon="-2.40019">
        <ele>28.5</ele>
        <time>2019-10-10T08:34:39.000Z</time>
      </trkpt>
      <trkpt lat="48.63966" lon="-2.40027">
        <ele>27.398438</ele>
        <time>2019-10-10T08:34:41.000Z</time>
      </trkpt>
      <trkpt lat="48.63956" lon="-2.40039">
        <ele>26.398438</ele>
        <time>2019-10-10T08:34:43.000Z</time>
      </trkpt>
      <trkpt lat="48.63946" lon="-2.40055">
        <ele>25</ele>
        <time>2019-10-10T08:34:45.000Z</time>
      </trkpt>
      <trkpt lat="48.63938" lon="-2.40075">
        <ele>23.898438</ele>
        <time>2019-10-10T08:34:47.000Z</time>
      </trkpt>
      <trkpt lat="48.63931" lon="-2.40098">
        <ele>23.199219</ele>
        <time>2019-10-10T08:34:49.000Z</time>
      </trkpt>
      <trkpt lat="48.63914" lon="-2.40149">
        <ele>23.296875</ele>
        <time>2019-10-10T08:34:55.000Z</time>
      </trkpt>
      <trkpt lat="48.63908" lon="-2.40162">
        <ele>23.199219</ele>
        <time>2019-10-10T08:34:57.000Z</time>
      </trkpt>
      <trkpt lat="48.63901" lon="-2.40174">
        <ele>23.097656</ele>
        <time>2019-10-10T08:34:59.000Z</time>
      </trkpt>
      <trkpt lat="48.63893" lon="-2.40183">
        <ele>23</ele>
        <time>2019-10-10T08:35:01.000Z</time>
      </trkpt>
      <trkpt lat="48.63885" lon="-2.4019">
        <ele>23.097656</ele>
        <time>2019-10-10T08:35:03.000Z</time>
      </trkpt>
      <trkpt lat="48.63876" lon="-2.40195">
        <ele>23.097656</ele>
        <time>2019-10-10T08:35:05.000Z</time>
      </trkpt>
      <trkpt lat="48.63866" lon="-2.40199">
        <ele>23.296875</ele>
        <time>2019-10-10T08:35:07.000Z</time>
      </trkpt>
      <trkpt lat="48.63854" lon="-2.40204">
        <ele>22.898438</ele>
        <time>2019-10-10T08:35:10.000Z</time>
      </trkpt>
      <trkpt lat="48.63843" lon="-2.4021">
        <ele>22.597656</ele>
        <time>2019-10-10T08:35:13.000Z</time>
      </trkpt>
      <trkpt lat="48.63831" lon="-2.40217">
        <ele>22.597656</ele>
        <time>2019-10-10T08:35:16.000Z</time>
      </trkpt>
      <trkpt lat="48.63819" lon="-2.40222">
        <ele>23</ele>
        <time>2019-10-10T08:35:19.000Z</time>
      </trkpt>
      <trkpt lat="48.63784" lon="-2.40236">
        <ele>23.296875</ele>
        <time>2019-10-10T08:35:28.000Z</time>
      </trkpt>
      <trkpt lat="48.63775" lon="-2.40246">
        <ele>23.898438</ele>
        <time>2019-10-10T08:35:31.000Z</time>
      </trkpt>
      <trkpt lat="48.63767" lon="-2.40259">
        <ele>24.898438</ele>
        <time>2019-10-10T08:35:35.000Z</time>
      </trkpt>
      <trkpt lat="48.6376" lon="-2.40273">
        <ele>25.597656</ele>
        <time>2019-10-10T08:35:39.000Z</time>
      </trkpt>
      <trkpt lat="48.63754" lon="-2.40287">
        <ele>25.699219</ele>
        <time>2019-10-10T08:35:43.000Z</time>
      </trkpt>
      <trkpt lat="48.63752" lon="-2.40304">
        <ele>24.796875</ele>
        <time>2019-10-10T08:35:47.000Z</time>
      </trkpt>
      <trkpt lat="48.63752" lon="-2.40318">
        <ele>24.5</ele>
        <time>2019-10-10T08:35:50.000Z</time>
      </trkpt>
      <trkpt lat="48.63754" lon="-2.40335">
        <ele>23.898438</ele>
        <time>2019-10-10T08:35:53.000Z</time>
      </trkpt>
      <trkpt lat="48.63756" lon="-2.40348">
        <ele>23.296875</ele>
        <time>2019-10-10T08:35:55.000Z</time>
      </trkpt>
      <trkpt lat="48.63761" lon="-2.40362">
        <ele>22.597656</ele>
        <time>2019-10-10T08:35:57.000Z</time>
      </trkpt>
      <trkpt lat="48.63766" lon="-2.40377">
        <ele>22</ele>
        <time>2019-10-10T08:35:59.000Z</time>
      </trkpt>
      <trkpt lat="48.63773" lon="-2.40391">
        <ele>21.398438</ele>
        <time>2019-10-10T08:36:01.000Z</time>
      </trkpt>
      <trkpt lat="48.63786" lon="-2.40419">
        <ele>20.398438</ele>
        <time>2019-10-10T08:36:05.000Z</time>
      </trkpt>
      <trkpt lat="48.63788" lon="-2.40434">
        <ele>20</ele>
        <time>2019-10-10T08:36:07.000Z</time>
      </trkpt>
      <trkpt lat="48.63787" lon="-2.4045">
        <ele>19.699219</ele>
        <time>2019-10-10T08:36:09.000Z</time>
      </trkpt>
      <trkpt lat="48.63785" lon="-2.40466">
        <ele>19.597656</ele>
        <time>2019-10-10T08:36:11.000Z</time>
      </trkpt>
      <trkpt lat="48.6376" lon="-2.40614">
        <ele>19.398438</ele>
        <time>2019-10-10T08:36:32.000Z</time>
      </trkpt>
      <trkpt lat="48.63756" lon="-2.4063">
        <ele>18.398438</ele>
        <time>2019-10-10T08:36:35.000Z</time>
      </trkpt>
      <trkpt lat="48.6376" lon="-2.40645">
        <ele>18.5</ele>
        <time>2019-10-10T08:36:39.000Z</time>
      </trkpt>
      <trkpt lat="48.63766" lon="-2.40656">
        <ele>18.796875</ele>
        <time>2019-10-10T08:36:43.000Z</time>
      </trkpt>
      <trkpt lat="48.63771" lon="-2.40668">
        <ele>18.796875</ele>
        <time>2019-10-10T08:36:46.000Z</time>
      </trkpt>
      <trkpt lat="48.6378" lon="-2.4068">
        <ele>19</ele>
        <time>2019-10-10T08:36:49.000Z</time>
      </trkpt>
      <trkpt lat="48.63791" lon="-2.40687">
        <ele>19.898438</ele>
        <time>2019-10-10T08:36:52.000Z</time>
      </trkpt>
      <trkpt lat="48.63821" lon="-2.40708">
        <ele>20.296875</ele>
        <time>2019-10-10T08:37:01.000Z</time>
      </trkpt>
      <trkpt lat="48.63828" lon="-2.40718">
        <ele>19.796875</ele>
        <time>2019-10-10T08:37:05.000Z</time>
      </trkpt>
      <trkpt lat="48.63825" lon="-2.40731">
        <ele>20</ele>
        <time>2019-10-10T08:37:08.000Z</time>
      </trkpt>
      <trkpt lat="48.63817" lon="-2.40744">
        <ele>19.796875</ele>
        <time>2019-10-10T08:37:11.000Z</time>
      </trkpt>
      <trkpt lat="48.6378" lon="-2.40796">
        <ele>17.796875</ele>
        <time>2019-10-10T08:37:23.000Z</time>
      </trkpt>
      <trkpt lat="48.63692" lon="-2.40909">
        <ele>16.5</ele>
        <time>2019-10-10T08:37:49.000Z</time>
      </trkpt>
      <trkpt lat="48.63681" lon="-2.40921">
        <ele>16.398438</ele>
        <time>2019-10-10T08:37:52.000Z</time>
      </trkpt>
      <trkpt lat="48.63669" lon="-2.40925">
        <ele>16</ele>
        <time>2019-10-10T08:37:55.000Z</time>
      </trkpt>
      <trkpt lat="48.63658" lon="-2.40921">
        <ele>15.796875</ele>
        <time>2019-10-10T08:37:58.000Z</time>
      </trkpt>
      <trkpt lat="48.63646" lon="-2.40913">
        <ele>15.796875</ele>
        <time>2019-10-10T08:38:01.000Z</time>
      </trkpt>
      <trkpt lat="48.63635" lon="-2.40904">
        <ele>15.796875</ele>
        <time>2019-10-10T08:38:04.000Z</time>
      </trkpt>
      <trkpt lat="48.63606" lon="-2.40878">
        <ele>16</ele>
        <time>2019-10-10T08:38:13.000Z</time>
      </trkpt>
      <trkpt lat="48.63596" lon="-2.40875">
        <ele>16.199219</ele>
        <time>2019-10-10T08:38:16.000Z</time>
      </trkpt>
      <trkpt lat="48.63586" lon="-2.40878">
        <ele>16.296875</ele>
        <time>2019-10-10T08:38:19.000Z</time>
      </trkpt>
      <trkpt lat="48.63577" lon="-2.40886">
        <ele>16.398438</ele>
        <time>2019-10-10T08:38:22.000Z</time>
      </trkpt>
      <trkpt lat="48.63567" lon="-2.40896">
        <ele>16.5</ele>
        <time>2019-10-10T08:38:25.000Z</time>
      </trkpt>
      <trkpt lat="48.63558" lon="-2.40907">
        <ele>16.398438</ele>
        <time>2019-10-10T08:38:28.000Z</time>
      </trkpt>
      <trkpt lat="48.6355" lon="-2.4092">
        <ele>16.398438</ele>
        <time>2019-10-10T08:38:31.000Z</time>
      </trkpt>
      <trkpt lat="48.63501" lon="-2.40996">
        <ele>16.796875</ele>
        <time>2019-10-10T08:38:49.000Z</time>
      </trkpt>
      <trkpt lat="48.63494" lon="-2.41011">
        <ele>16.796875</ele>
        <time>2019-10-10T08:38:52.000Z</time>
      </trkpt>
      <trkpt lat="48.63485" lon="-2.41024">
        <ele>16.597656</ele>
        <time>2019-10-10T08:38:55.000Z</time>
      </trkpt>
      <trkpt lat="48.63477" lon="-2.41034">
        <ele>16.5</ele>
        <time>2019-10-10T08:38:58.000Z</time>
      </trkpt>
      <trkpt lat="48.63468" lon="-2.41031">
        <ele>16.398438</ele>
        <time>2019-10-10T08:39:01.000Z</time>
      </trkpt>
      <trkpt lat="48.63459" lon="-2.41024">
        <ele>16.398438</ele>
        <time>2019-10-10T08:39:04.000Z</time>
      </trkpt>
      <trkpt lat="48.6345" lon="-2.41023">
        <ele>16.597656</ele>
        <time>2019-10-10T08:39:07.000Z</time>
      </trkpt>
      <trkpt lat="48.63442" lon="-2.41032">
        <ele>15.5</ele>
        <time>2019-10-10T08:39:11.000Z</time>
      </trkpt>
      <trkpt lat="48.63443" lon="-2.4105">
        <ele>15.296875</ele>
        <time>2019-10-10T08:39:15.000Z</time>
      </trkpt>
      <trkpt lat="48.63447" lon="-2.41068">
        <ele>15.296875</ele>
        <time>2019-10-10T08:39:18.000Z</time>
      </trkpt>
      <trkpt lat="48.63449" lon="-2.41084">
        <ele>14.796875</ele>
        <time>2019-10-10T08:39:21.000Z</time>
      </trkpt>
      <trkpt lat="48.63443" lon="-2.41096">
        <ele>14.398438</ele>
        <time>2019-10-10T08:39:24.000Z</time>
      </trkpt>
      <trkpt lat="48.63435" lon="-2.41107">
        <ele>14.5</ele>
        <time>2019-10-10T08:39:27.000Z</time>
      </trkpt>
      <trkpt lat="48.63408" lon="-2.41144">
        <ele>14.398438</ele>
        <time>2019-10-10T08:39:36.000Z</time>
      </trkpt>
      <trkpt lat="48.63397" lon="-2.41152">
        <ele>15.097656</ele>
        <time>2019-10-10T08:39:39.000Z</time>
      </trkpt>
      <trkpt lat="48.63386" lon="-2.4115">
        <ele>15.898438</ele>
        <time>2019-10-10T08:39:42.000Z</time>
      </trkpt>
      <trkpt lat="48.63374" lon="-2.41149">
        <ele>16.199219</ele>
        <time>2019-10-10T08:39:46.000Z</time>
      </trkpt>
      <trkpt lat="48.63365" lon="-2.41152">
        <ele>16.296875</ele>
        <time>2019-10-10T08:39:49.000Z</time>
      </trkpt>
      <trkpt lat="48.63323" lon="-2.41168">
        <ele>16.5</ele>
        <time>2019-10-10T08:40:01.000Z</time>
      </trkpt>
      <trkpt lat="48.63312" lon="-2.41169">
        <ele>16.898438</ele>
        <time>2019-10-10T08:40:04.000Z</time>
      </trkpt>
      <trkpt lat="48.63302" lon="-2.41169">
        <ele>17.597656</ele>
        <time>2019-10-10T08:40:07.000Z</time>
      </trkpt>
      <trkpt lat="48.63296" lon="-2.41157">
        <ele>17.699219</ele>
        <time>2019-10-10T08:40:12.000Z</time>
      </trkpt>
      <trkpt lat="48.63286" lon="-2.41164">
        <ele>17.699219</ele>
        <time>2019-10-10T08:40:17.000Z</time>
      </trkpt>
      <trkpt lat="48.63278" lon="-2.41172">
        <ele>17.699219</ele>
        <time>2019-10-10T08:40:20.000Z</time>
      </trkpt>
      <trkpt lat="48.63241" lon="-2.41211">
        <ele>17.296875</ele>
        <time>2019-10-10T08:40:32.000Z</time>
      </trkpt>
      <trkpt lat="48.63234" lon="-2.41221">
        <ele>17.199219</ele>
        <time>2019-10-10T08:40:35.000Z</time>
      </trkpt>
      <trkpt lat="48.63227" lon="-2.41233">
        <ele>17.199219</ele>
        <time>2019-10-10T08:40:38.000Z</time>
      </trkpt>
      <trkpt lat="48.6322" lon="-2.41247">
        <ele>17.199219</ele>
        <time>2019-10-10T08:40:41.000Z</time>
      </trkpt>
      <trkpt lat="48.63214" lon="-2.41263">
        <ele>17.296875</ele>
        <time>2019-10-10T08:40:44.000Z</time>
      </trkpt>
      <trkpt lat="48.63208" lon="-2.4128">
        <ele>17.199219</ele>
        <time>2019-10-10T08:40:47.000Z</time>
      </trkpt>
      <trkpt lat="48.63203" lon="-2.41299">
        <ele>17</ele>
        <time>2019-10-10T08:40:50.000Z</time>
      </trkpt>
      <trkpt lat="48.63199" lon="-2.41319">
        <ele>16.398438</ele>
        <time>2019-10-10T08:40:53.000Z</time>
      </trkpt>
      <trkpt lat="48.63196" lon="-2.41352">
        <ele>16.097656</ele>
        <time>2019-10-10T08:40:58.000Z</time>
      </trkpt>
      <trkpt lat="48.63196" lon="-2.41372">
        <ele>15.898438</ele>
        <time>2019-10-10T08:41:01.000Z</time>
      </trkpt>
      <trkpt lat="48.632" lon="-2.41435">
        <ele>16.097656</ele>
        <time>2019-10-10T08:41:10.000Z</time>
      </trkpt>
      <trkpt lat="48.63207" lon="-2.41493">
        <ele>16</ele>
        <time>2019-10-10T08:41:19.000Z</time>
      </trkpt>
      <trkpt lat="48.63227" lon="-2.41621">
        <ele>16.296875</ele>
        <time>2019-10-10T08:41:41.000Z</time>
      </trkpt>
      <trkpt lat="48.63231" lon="-2.41636">
        <ele>14.5</ele>
        <time>2019-10-10T08:41:46.000Z</time>
      </trkpt>
      <trkpt lat="48.63247" lon="-2.41694">
        <ele>10.398438</ele>
        <time>2019-10-10T08:41:57.000Z</time>
      </trkpt>
      <trkpt lat="48.63253" lon="-2.41712">
        <ele>10.296875</ele>
        <time>2019-10-10T08:42:00.000Z</time>
      </trkpt>
      <trkpt lat="48.63363" lon="-2.42057">
        <ele>17.398438</ele>
        <time>2019-10-10T08:43:24.000Z</time>
      </trkpt>
      <trkpt lat="48.63366" lon="-2.42071">
        <ele>17.199219</ele>
        <time>2019-10-10T08:43:28.000Z</time>
      </trkpt>
      <trkpt lat="48.63371" lon="-2.42086">
        <ele>17.296875</ele>
        <time>2019-10-10T08:43:33.000Z</time>
      </trkpt>
      <trkpt lat="48.63374" lon="-2.42101">
        <ele>18.5</ele>
        <time>2019-10-10T08:43:38.000Z</time>
      </trkpt>
      <trkpt lat="48.63375" lon="-2.42116">
        <ele>19.597656</ele>
        <time>2019-10-10T08:43:42.000Z</time>
      </trkpt>
      <trkpt lat="48.63375" lon="-2.42148">
        <ele>20.699219</ele>
        <time>2019-10-10T08:43:49.000Z</time>
      </trkpt>
      <trkpt lat="48.63374" lon="-2.4218">
        <ele>25.5</ele>
        <time>2019-10-10T08:43:56.000Z</time>
      </trkpt>
      <trkpt lat="48.63372" lon="-2.42197">
        <ele>28</ele>
        <time>2019-10-10T08:44:00.000Z</time>
      </trkpt>
      <trkpt lat="48.6337" lon="-2.42214">
        <ele>30.699219</ele>
        <time>2019-10-10T08:44:04.000Z</time>
      </trkpt>
      <trkpt lat="48.63365" lon="-2.4223">
        <ele>31.398438</ele>
        <time>2019-10-10T08:44:08.000Z</time>
      </trkpt>
      <trkpt lat="48.63361" lon="-2.42244">
        <ele>30.398438</ele>
        <time>2019-10-10T08:44:12.000Z</time>
      </trkpt>
      <trkpt lat="48.63356" lon="-2.42257">
        <ele>30.097656</ele>
        <time>2019-10-10T08:44:16.000Z</time>
      </trkpt>
      <trkpt lat="48.63327" lon="-2.42322">
        <ele>34.296875</ele>
        <time>2019-10-10T08:44:36.000Z</time>
      </trkpt>
      <trkpt lat="48.63319" lon="-2.42336">
        <ele>35.199219</ele>
        <time>2019-10-10T08:44:40.000Z</time>
      </trkpt>
      <trkpt lat="48.63299" lon="-2.42374">
        <ele>36.296875</ele>
        <time>2019-10-10T08:44:51.000Z</time>
      </trkpt>
      <trkpt lat="48.63293" lon="-2.42387">
        <ele>36.398438</ele>
        <time>2019-10-10T08:44:54.000Z</time>
      </trkpt>
      <trkpt lat="48.63284" lon="-2.42414">
        <ele>36.398438</ele>
        <time>2019-10-10T08:45:00.000Z</time>
      </trkpt>
      <trkpt lat="48.63281" lon="-2.42429">
        <ele>36</ele>
        <time>2019-10-10T08:45:03.000Z</time>
      </trkpt>
      <trkpt lat="48.63277" lon="-2.42444">
        <ele>36.199219</ele>
        <time>2019-10-10T08:45:06.000Z</time>
      </trkpt>
      <trkpt lat="48.63276" lon="-2.42459">
        <ele>37.097656</ele>
        <time>2019-10-10T08:45:09.000Z</time>
      </trkpt>
      <trkpt lat="48.63275" lon="-2.42489">
        <ele>38</ele>
        <time>2019-10-10T08:45:15.000Z</time>
      </trkpt>
      <trkpt lat="48.63275" lon="-2.42503">
        <ele>37</ele>
        <time>2019-10-10T08:45:18.000Z</time>
      </trkpt>
      <trkpt lat="48.63277" lon="-2.42518">
        <ele>36.097656</ele>
        <time>2019-10-10T08:45:21.000Z</time>
      </trkpt>
      <trkpt lat="48.6328" lon="-2.42532">
        <ele>35.597656</ele>
        <time>2019-10-10T08:45:24.000Z</time>
      </trkpt>
      <trkpt lat="48.63287" lon="-2.42558">
        <ele>34.097656</ele>
        <time>2019-10-10T08:45:30.000Z</time>
      </trkpt>
      <trkpt lat="48.63292" lon="-2.4257">
        <ele>33.898438</ele>
        <time>2019-10-10T08:45:33.000Z</time>
      </trkpt>
      <trkpt lat="48.63319" lon="-2.42633">
        <ele>34.398438</ele>
        <time>2019-10-10T08:45:48.000Z</time>
      </trkpt>
      <trkpt lat="48.63323" lon="-2.42646">
        <ele>34.796875</ele>
        <time>2019-10-10T08:45:51.000Z</time>
      </trkpt>
      <trkpt lat="48.63331" lon="-2.42673">
        <ele>35.199219</ele>
        <time>2019-10-10T08:45:57.000Z</time>
      </trkpt>
      <trkpt lat="48.63334" lon="-2.42686">
        <ele>35.097656</ele>
        <time>2019-10-10T08:46:00.000Z</time>
      </trkpt>
      <trkpt lat="48.63336" lon="-2.427">
        <ele>35.398438</ele>
        <time>2019-10-10T08:46:03.000Z</time>
      </trkpt>
      <trkpt lat="48.63338" lon="-2.42714">
        <ele>35.699219</ele>
        <time>2019-10-10T08:46:06.000Z</time>
      </trkpt>
      <trkpt lat="48.63338" lon="-2.42732">
        <ele>34.5</ele>
        <time>2019-10-10T08:46:10.000Z</time>
      </trkpt>
      <trkpt lat="48.63337" lon="-2.42749">
        <ele>34.796875</ele>
        <time>2019-10-10T08:46:14.000Z</time>
      </trkpt>
      <trkpt lat="48.63336" lon="-2.42764">
        <ele>35.5</ele>
        <time>2019-10-10T08:46:17.000Z</time>
      </trkpt>
      <trkpt lat="48.63333" lon="-2.42793">
        <ele>36.5</ele>
        <time>2019-10-10T08:46:23.000Z</time>
      </trkpt>
      <trkpt lat="48.63332" lon="-2.42811">
        <ele>37.597656</ele>
        <time>2019-10-10T08:46:27.000Z</time>
      </trkpt>
      <trkpt lat="48.63332" lon="-2.42825">
        <ele>39</ele>
        <time>2019-10-10T08:46:30.000Z</time>
      </trkpt>
      <trkpt lat="48.63333" lon="-2.4286">
        <ele>38.398438</ele>
        <time>2019-10-10T08:46:38.000Z</time>
      </trkpt>
      <trkpt lat="48.63337" lon="-2.42921">
        <ele>40.398438</ele>
        <time>2019-10-10T08:46:51.000Z</time>
      </trkpt>
      <trkpt lat="48.63338" lon="-2.42935">
        <ele>40.199219</ele>
        <time>2019-10-10T08:46:54.000Z</time>
      </trkpt>
      <trkpt lat="48.63341" lon="-2.42952">
        <ele>39.5</ele>
        <time>2019-10-10T08:46:58.000Z</time>
      </trkpt>
      <trkpt lat="48.63342" lon="-2.42969">
        <ele>39.398438</ele>
        <time>2019-10-10T08:47:02.000Z</time>
      </trkpt>
      <trkpt lat="48.63345" lon="-2.42986">
        <ele>40.097656</ele>
        <time>2019-10-10T08:47:06.000Z</time>
      </trkpt>
      <trkpt lat="48.63353" lon="-2.43018">
        <ele>40.097656</ele>
        <time>2019-10-10T08:47:14.000Z</time>
      </trkpt>
      <trkpt lat="48.63354" lon="-2.43033">
        <ele>40.199219</ele>
        <time>2019-10-10T08:47:17.000Z</time>
      </trkpt>
      <trkpt lat="48.63354" lon="-2.4305">
        <ele>41.097656</ele>
        <time>2019-10-10T08:47:20.000Z</time>
      </trkpt>
      <trkpt lat="48.63353" lon="-2.43081">
        <ele>43.597656</ele>
        <time>2019-10-10T08:47:26.000Z</time>
      </trkpt>
      <trkpt lat="48.63351" lon="-2.43096">
        <ele>44.199219</ele>
        <time>2019-10-10T08:47:29.000Z</time>
      </trkpt>
      <trkpt lat="48.63347" lon="-2.43128">
        <ele>44.898438</ele>
        <time>2019-10-10T08:47:36.000Z</time>
      </trkpt>
      <trkpt lat="48.63342" lon="-2.43145">
        <ele>45.097656</ele>
        <time>2019-10-10T08:47:40.000Z</time>
      </trkpt>
      <trkpt lat="48.63337" lon="-2.43157">
        <ele>44.199219</ele>
        <time>2019-10-10T08:47:43.000Z</time>
      </trkpt>
      <trkpt lat="48.63326" lon="-2.43184">
        <ele>44.199219</ele>
        <time>2019-10-10T08:47:50.000Z</time>
      </trkpt>
      <trkpt lat="48.63312" lon="-2.43209">
        <ele>46</ele>
        <time>2019-10-10T08:47:56.000Z</time>
      </trkpt>
      <trkpt lat="48.6327" lon="-2.43276">
        <ele>50.898438</ele>
        <time>2019-10-10T08:48:14.000Z</time>
      </trkpt>
      <trkpt lat="48.63267" lon="-2.43289">
        <ele>51.597656</ele>
        <time>2019-10-10T08:48:17.000Z</time>
      </trkpt>
      <trkpt lat="48.63254" lon="-2.43332">
        <ele>53.398438</ele>
        <time>2019-10-10T08:48:28.000Z</time>
      </trkpt>
      <trkpt lat="48.63252" lon="-2.43349">
        <ele>53.796875</ele>
        <time>2019-10-10T08:48:33.000Z</time>
      </trkpt>
      <trkpt lat="48.63244" lon="-2.43409">
        <ele>55.5</ele>
        <time>2019-10-10T08:48:51.000Z</time>
      </trkpt>
      <trkpt lat="48.63244" lon="-2.43422">
        <ele>55.796875</ele>
        <time>2019-10-10T08:48:56.000Z</time>
      </trkpt>
      <trkpt lat="48.63241" lon="-2.43438">
        <ele>56</ele>
        <time>2019-10-10T08:49:01.000Z</time>
      </trkpt>
      <trkpt lat="48.63236" lon="-2.43453">
        <ele>56.199219</ele>
        <time>2019-10-10T08:49:06.000Z</time>
      </trkpt>
      <trkpt lat="48.63236" lon="-2.43468">
        <ele>56</ele>
        <time>2019-10-10T08:49:11.000Z</time>
      </trkpt>
      <trkpt lat="48.63234" lon="-2.43481">
        <ele>55.699219</ele>
        <time>2019-10-10T08:49:15.000Z</time>
      </trkpt>
      <trkpt lat="48.63216" lon="-2.43636">
        <ele>57.5</ele>
        <time>2019-10-10T08:49:53.000Z</time>
      </trkpt>
      <trkpt lat="48.6321" lon="-2.43668">
        <ele>58.199219</ele>
        <time>2019-10-10T08:50:00.000Z</time>
      </trkpt>
      <trkpt lat="48.63172" lon="-2.43974">
        <ele>62</ele>
        <time>2019-10-10T08:50:57.000Z</time>
      </trkpt>
      <trkpt lat="48.63136" lon="-2.44257">
        <ele>59.296875</ele>
        <time>2019-10-10T08:51:44.000Z</time>
      </trkpt>
      <trkpt lat="48.63135" lon="-2.44274">
        <ele>59.199219</ele>
        <time>2019-10-10T08:51:48.000Z</time>
      </trkpt>
      <trkpt lat="48.63134" lon="-2.44288">
        <ele>59.097656</ele>
        <time>2019-10-10T08:51:51.000Z</time>
      </trkpt>
      <trkpt lat="48.6313" lon="-2.44318">
        <ele>58.296875</ele>
        <time>2019-10-10T08:51:57.000Z</time>
      </trkpt>
      <trkpt lat="48.63103" lon="-2.44529">
        <ele>53.699219</ele>
        <time>2019-10-10T08:53:19.000Z</time>
      </trkpt>
      <trkpt lat="48.63102" lon="-2.44543">
        <ele>53.199219</ele>
        <time>2019-10-10T08:53:25.000Z</time>
      </trkpt>
      <trkpt lat="48.63087" lon="-2.4467">
        <ele>51.699219</ele>
        <time>2019-10-10T08:53:47.000Z</time>
      </trkpt>
      <trkpt lat="48.63073" lon="-2.44778">
        <ele>51</ele>
        <time>2019-10-10T08:54:04.000Z</time>
      </trkpt>
      <trkpt lat="48.63065" lon="-2.44817">
        <ele>50.597656</ele>
        <time>2019-10-10T08:54:10.000Z</time>
      </trkpt>
      <trkpt lat="48.6306" lon="-2.44835">
        <ele>50.5</ele>
        <time>2019-10-10T08:54:13.000Z</time>
      </trkpt>
      <trkpt lat="48.63044" lon="-2.44885">
        <ele>50.199219</ele>
        <time>2019-10-10T08:54:22.000Z</time>
      </trkpt>
      <trkpt lat="48.63024" lon="-2.44943">
        <ele>49.699219</ele>
        <time>2019-10-10T08:54:35.000Z</time>
      </trkpt>
      <trkpt lat="48.63016" lon="-2.44968">
        <ele>49.699219</ele>
        <time>2019-10-10T08:54:55.000Z</time>
      </trkpt>
      <trkpt lat="48.63013" lon="-2.44981">
        <ele>49.5</ele>
        <time>2019-10-10T08:54:58.000Z</time>
      </trkpt>
      <trkpt lat="48.63004" lon="-2.45049">
        <ele>48.5</ele>
        <time>2019-10-10T08:55:09.000Z</time>
      </trkpt>
      <trkpt lat="48.62968" lon="-2.45352">
        <ele>47.199219</ele>
        <time>2019-10-10T08:55:54.000Z</time>
      </trkpt>
      <trkpt lat="48.62967" lon="-2.45369">
        <ele>47.097656</ele>
        <time>2019-10-10T08:55:57.000Z</time>
      </trkpt>
      <trkpt lat="48.62957" lon="-2.45469">
        <ele>46.699219</ele>
        <time>2019-10-10T08:56:17.000Z</time>
      </trkpt>
      <trkpt lat="48.62954" lon="-2.45484">
        <ele>46.796875</ele>
        <time>2019-10-10T08:56:23.000Z</time>
      </trkpt>
      <trkpt lat="48.62952" lon="-2.455">
        <ele>46.699219</ele>
        <time>2019-10-10T08:56:28.000Z</time>
      </trkpt>
      <trkpt lat="48.6293" lon="-2.45679">
        <ele>43.597656</ele>
        <time>2019-10-10T08:57:03.000Z</time>
      </trkpt>
      <trkpt lat="48.62926" lon="-2.45693">
        <ele>43.199219</ele>
        <time>2019-10-10T08:57:08.000Z</time>
      </trkpt>
      <trkpt lat="48.62921" lon="-2.45705">
        <ele>42.898438</ele>
        <time>2019-10-10T08:57:12.000Z</time>
      </trkpt>
      <trkpt lat="48.62915" lon="-2.45715">
        <ele>42.898438</ele>
        <time>2019-10-10T08:57:15.000Z</time>
      </trkpt>
      <trkpt lat="48.62909" lon="-2.45728">
        <ele>42.699219</ele>
        <time>2019-10-10T08:57:19.000Z</time>
      </trkpt>
      <trkpt lat="48.62906" lon="-2.45743">
        <ele>42.398438</ele>
        <time>2019-10-10T08:57:23.000Z</time>
      </trkpt>
      <trkpt lat="48.62899" lon="-2.45771">
        <ele>42.699219</ele>
        <time>2019-10-10T08:57:29.000Z</time>
      </trkpt>
      <trkpt lat="48.62894" lon="-2.45787">
        <ele>43.097656</ele>
        <time>2019-10-10T08:57:32.000Z</time>
      </trkpt>
      <trkpt lat="48.62889" lon="-2.458">
        <ele>43.199219</ele>
        <time>2019-10-10T08:57:35.000Z</time>
      </trkpt>
      <trkpt lat="48.62881" lon="-2.45811">
        <ele>43.296875</ele>
        <time>2019-10-10T08:57:38.000Z</time>
      </trkpt>
      <trkpt lat="48.62874" lon="-2.45822">
        <ele>43.5</ele>
        <time>2019-10-10T08:57:41.000Z</time>
      </trkpt>
      <trkpt lat="48.62868" lon="-2.45834">
        <ele>43.296875</ele>
        <time>2019-10-10T08:57:44.000Z</time>
      </trkpt>
      <trkpt lat="48.62864" lon="-2.45846">
        <ele>43.796875</ele>
        <time>2019-10-10T08:57:47.000Z</time>
      </trkpt>
      <trkpt lat="48.62861" lon="-2.45864">
        <ele>43.796875</ele>
        <time>2019-10-10T08:57:51.000Z</time>
      </trkpt>
      <trkpt lat="48.62855" lon="-2.45876">
        <ele>43.699219</ele>
        <time>2019-10-10T08:57:54.000Z</time>
      </trkpt>
      <trkpt lat="48.62848" lon="-2.45887">
        <ele>43.796875</ele>
        <time>2019-10-10T08:57:57.000Z</time>
      </trkpt>
      <trkpt lat="48.62832" lon="-2.45908">
        <ele>43.898438</ele>
        <time>2019-10-10T08:58:03.000Z</time>
      </trkpt>
      <trkpt lat="48.62825" lon="-2.4592">
        <ele>44</ele>
        <time>2019-10-10T08:58:06.000Z</time>
      </trkpt>
      <trkpt lat="48.62813" lon="-2.45942">
        <ele>43.199219</ele>
        <time>2019-10-10T08:58:13.000Z</time>
      </trkpt>
      <trkpt lat="48.62809" lon="-2.45954">
        <ele>43.597656</ele>
        <time>2019-10-10T08:58:20.000Z</time>
      </trkpt>
      <trkpt lat="48.62799" lon="-2.45965">
        <ele>44.699219</ele>
        <time>2019-10-10T08:58:33.000Z</time>
      </trkpt>
      <trkpt lat="48.62792" lon="-2.45976">
        <ele>45.097656</ele>
        <time>2019-10-10T08:58:36.000Z</time>
      </trkpt>
      <trkpt lat="48.6279" lon="-2.45992">
        <ele>45.5</ele>
        <time>2019-10-10T08:58:40.000Z</time>
      </trkpt>
      <trkpt lat="48.62786" lon="-2.46005">
        <ele>45.796875</ele>
        <time>2019-10-10T08:58:44.000Z</time>
      </trkpt>
      <trkpt lat="48.62775" lon="-2.46034">
        <ele>46.398438</ele>
        <time>2019-10-10T08:58:54.000Z</time>
      </trkpt>
      <trkpt lat="48.62769" lon="-2.46046">
        <ele>46.796875</ele>
        <time>2019-10-10T08:58:59.000Z</time>
      </trkpt>
      <trkpt lat="48.62765" lon="-2.46059">
        <ele>47.199219</ele>
        <time>2019-10-10T08:59:03.000Z</time>
      </trkpt>
      <trkpt lat="48.6276" lon="-2.46073">
        <ele>47.796875</ele>
        <time>2019-10-10T08:59:07.000Z</time>
      </trkpt>
      <trkpt lat="48.62732" lon="-2.46155">
        <ele>49.898438</ele>
        <time>2019-10-10T08:59:26.000Z</time>
      </trkpt>
      <trkpt lat="48.62678" lon="-2.46303">
        <ele>54.898438</ele>
        <time>2019-10-10T08:59:59.000Z</time>
      </trkpt>
      <trkpt lat="48.6266" lon="-2.46338">
        <ele>56.199219</ele>
        <time>2019-10-10T09:00:08.000Z</time>
      </trkpt>
      <trkpt lat="48.62654" lon="-2.46349">
        <ele>56.398438</ele>
        <time>2019-10-10T09:00:11.000Z</time>
      </trkpt>
      <trkpt lat="48.62639" lon="-2.46368">
        <ele>57.097656</ele>
        <time>2019-10-10T09:00:17.000Z</time>
      </trkpt>
      <trkpt lat="48.62625" lon="-2.46386">
        <ele>57.898438</ele>
        <time>2019-10-10T09:00:23.000Z</time>
      </trkpt>
      <trkpt lat="48.62617" lon="-2.46394">
        <ele>58.296875</ele>
        <time>2019-10-10T09:00:26.000Z</time>
      </trkpt>
      <trkpt lat="48.62602" lon="-2.46409">
        <ele>58.898438</ele>
        <time>2019-10-10T09:00:32.000Z</time>
      </trkpt>
      <trkpt lat="48.62593" lon="-2.46416">
        <ele>59.296875</ele>
        <time>2019-10-10T09:00:35.000Z</time>
      </trkpt>
      <trkpt lat="48.62576" lon="-2.46428">
        <ele>59.796875</ele>
        <time>2019-10-10T09:00:41.000Z</time>
      </trkpt>
      <trkpt lat="48.62568" lon="-2.46438">
        <ele>59.199219</ele>
        <time>2019-10-10T09:00:45.000Z</time>
      </trkpt>
      <trkpt lat="48.62557" lon="-2.46444">
        <ele>59.5</ele>
        <time>2019-10-10T09:02:06.000Z</time>
      </trkpt>
      <trkpt lat="48.62548" lon="-2.46449">
        <ele>59.5</ele>
        <time>2019-10-10T09:02:11.000Z</time>
      </trkpt>
      <trkpt lat="48.62539" lon="-2.46457">
        <ele>59.296875</ele>
        <time>2019-10-10T09:02:16.000Z</time>
      </trkpt>
      <trkpt lat="48.62418" lon="-2.46559">
        <ele>54.699219</ele>
        <time>2019-10-10T09:02:53.000Z</time>
      </trkpt>
      <trkpt lat="48.62411" lon="-2.46569">
        <ele>54.097656</ele>
        <time>2019-10-10T09:02:56.000Z</time>
      </trkpt>
      <trkpt lat="48.62394" lon="-2.4659">
        <ele>53.296875</ele>
        <time>2019-10-10T09:03:03.000Z</time>
      </trkpt>
      <trkpt lat="48.62385" lon="-2.46602">
        <ele>52.898438</ele>
        <time>2019-10-10T09:03:06.000Z</time>
      </trkpt>
      <trkpt lat="48.62361" lon="-2.46641">
        <ele>51.699219</ele>
        <time>2019-10-10T09:03:14.000Z</time>
      </trkpt>
      <trkpt lat="48.6228" lon="-2.46787">
        <ele>44.796875</ele>
        <time>2019-10-10T09:03:38.000Z</time>
      </trkpt>
      <trkpt lat="48.62252" lon="-2.46822">
        <ele>42.597656</ele>
        <time>2019-10-10T09:03:44.000Z</time>
      </trkpt>
      <trkpt lat="48.62243" lon="-2.46832">
        <ele>42.296875</ele>
        <time>2019-10-10T09:03:46.000Z</time>
      </trkpt>
      <trkpt lat="48.62234" lon="-2.4684">
        <ele>41.699219</ele>
        <time>2019-10-10T09:03:48.000Z</time>
      </trkpt>
      <trkpt lat="48.62177" lon="-2.46889">
        <ele>38.199219</ele>
        <time>2019-10-10T09:04:02.000Z</time>
      </trkpt>
      <trkpt lat="48.62168" lon="-2.46892">
        <ele>42.699219</ele>
        <time>2019-10-10T09:04:09.000Z</time>
      </trkpt>
      <trkpt lat="48.62177" lon="-2.46888">
        <ele>42</ele>
        <time>2019-10-10T09:05:18.000Z</time>
      </trkpt>
      <trkpt lat="48.62187" lon="-2.46879">
        <ele>40.699219</ele>
        <time>2019-10-10T09:05:23.000Z</time>
      </trkpt>
      <trkpt lat="48.62194" lon="-2.46869">
        <ele>39.199219</ele>
        <time>2019-10-10T09:05:27.000Z</time>
      </trkpt>
      <trkpt lat="48.62203" lon="-2.46861">
        <ele>38.199219</ele>
        <time>2019-10-10T09:05:31.000Z</time>
      </trkpt>
      <trkpt lat="48.62241" lon="-2.4683">
        <ele>39.898438</ele>
        <time>2019-10-10T09:05:45.000Z</time>
      </trkpt>
      <trkpt lat="48.62249" lon="-2.46821">
        <ele>40.398438</ele>
        <time>2019-10-10T09:05:48.000Z</time>
      </trkpt>
      <trkpt lat="48.6228" lon="-2.46779">
        <ele>39.796875</ele>
        <time>2019-10-10T09:06:00.000Z</time>
      </trkpt>
      <trkpt lat="48.62296" lon="-2.46754">
        <ele>41</ele>
        <time>2019-10-10T09:06:06.000Z</time>
      </trkpt>
      <trkpt lat="48.62311" lon="-2.46727">
        <ele>42.199219</ele>
        <time>2019-10-10T09:06:12.000Z</time>
      </trkpt>
      <trkpt lat="48.62377" lon="-2.46608">
        <ele>49.898438</ele>
        <time>2019-10-10T09:06:39.000Z</time>
      </trkpt>
      <trkpt lat="48.62394" lon="-2.46586">
        <ele>51</ele>
        <time>2019-10-10T09:06:45.000Z</time>
      </trkpt>
      <trkpt lat="48.62402" lon="-2.46576">
        <ele>51.097656</ele>
        <time>2019-10-10T09:06:48.000Z</time>
      </trkpt>
      <trkpt lat="48.62409" lon="-2.46565">
        <ele>51.898438</ele>
        <time>2019-10-10T09:06:51.000Z</time>
      </trkpt>
      <trkpt lat="48.6242" lon="-2.46557">
        <ele>52.5</ele>
        <time>2019-10-10T09:06:55.000Z</time>
      </trkpt>
      <trkpt lat="48.62428" lon="-2.46548">
        <ele>53</ele>
        <time>2019-10-10T09:06:58.000Z</time>
      </trkpt>
      <trkpt lat="48.62436" lon="-2.46538">
        <ele>53.5</ele>
        <time>2019-10-10T09:07:01.000Z</time>
      </trkpt>
      <trkpt lat="48.62446" lon="-2.46531">
        <ele>54</ele>
        <time>2019-10-10T09:07:04.000Z</time>
      </trkpt>
      <trkpt lat="48.62622" lon="-2.46384">
        <ele>54.296875</ele>
        <time>2019-10-10T09:08:06.000Z</time>
      </trkpt>
      <trkpt lat="48.62639" lon="-2.46365">
        <ele>53</ele>
        <time>2019-10-10T09:08:10.000Z</time>
      </trkpt>
      <trkpt lat="48.62647" lon="-2.46354">
        <ele>52.398438</ele>
        <time>2019-10-10T09:08:12.000Z</time>
      </trkpt>
      <trkpt lat="48.62654" lon="-2.46342">
        <ele>51.898438</ele>
        <time>2019-10-10T09:08:14.000Z</time>
      </trkpt>
      <trkpt lat="48.62668" lon="-2.46316">
        <ele>50.699219</ele>
        <time>2019-10-10T09:08:18.000Z</time>
      </trkpt>
      <trkpt lat="48.6268" lon="-2.4629">
        <ele>49.699219</ele>
        <time>2019-10-10T09:08:22.000Z</time>
      </trkpt>
      <trkpt lat="48.62698" lon="-2.46252">
        <ele>48.597656</ele>
        <time>2019-10-10T09:08:29.000Z</time>
      </trkpt>
      <trkpt lat="48.62703" lon="-2.46239">
        <ele>49.796875</ele>
        <time>2019-10-10T09:08:32.000Z</time>
      </trkpt>
      <trkpt lat="48.62705" lon="-2.46225">
        <ele>49.199219</ele>
        <time>2019-10-10T09:11:09.000Z</time>
      </trkpt>
      <trkpt lat="48.6271" lon="-2.4621">
        <ele>48.5</ele>
        <time>2019-10-10T09:11:13.000Z</time>
      </trkpt>
      <trkpt lat="48.62788" lon="-2.45991">
        <ele>41.296875</ele>
        <time>2019-10-10T09:11:43.000Z</time>
      </trkpt>
      <trkpt lat="48.62792" lon="-2.45975">
        <ele>40.5</ele>
        <time>2019-10-10T09:11:46.000Z</time>
      </trkpt>
      <trkpt lat="48.62798" lon="-2.45961">
        <ele>40</ele>
        <time>2019-10-10T09:11:50.000Z</time>
      </trkpt>
      <trkpt lat="48.62806" lon="-2.45953">
        <ele>40.597656</ele>
        <time>2019-10-10T09:11:54.000Z</time>
      </trkpt>
      <trkpt lat="48.62813" lon="-2.4594">
        <ele>40.699219</ele>
        <time>2019-10-10T09:11:58.000Z</time>
      </trkpt>
      <trkpt lat="48.62835" lon="-2.45902">
        <ele>40.199219</ele>
        <time>2019-10-10T09:12:10.000Z</time>
      </trkpt>
      <trkpt lat="48.62841" lon="-2.45893">
        <ele>39.898438</ele>
        <time>2019-10-10T09:12:13.000Z</time>
      </trkpt>
      <trkpt lat="48.62849" lon="-2.45885">
        <ele>39.398438</ele>
        <time>2019-10-10T09:12:16.000Z</time>
      </trkpt>
      <trkpt lat="48.62857" lon="-2.45872">
        <ele>39.296875</ele>
        <time>2019-10-10T09:12:20.000Z</time>
      </trkpt>
      <trkpt lat="48.62862" lon="-2.45858">
        <ele>39.398438</ele>
        <time>2019-10-10T09:12:24.000Z</time>
      </trkpt>
      <trkpt lat="48.62864" lon="-2.45843">
        <ele>39.898438</ele>
        <time>2019-10-10T09:12:28.000Z</time>
      </trkpt>
      <trkpt lat="48.62869" lon="-2.45827">
        <ele>40.398438</ele>
        <time>2019-10-10T09:12:32.000Z</time>
      </trkpt>
      <trkpt lat="48.62874" lon="-2.45817">
        <ele>40.296875</ele>
        <time>2019-10-10T09:12:35.000Z</time>
      </trkpt>
      <trkpt lat="48.62883" lon="-2.45806">
        <ele>39.597656</ele>
        <time>2019-10-10T09:12:39.000Z</time>
      </trkpt>
      <trkpt lat="48.62889" lon="-2.45795">
        <ele>39.398438</ele>
        <time>2019-10-10T09:12:42.000Z</time>
      </trkpt>
      <trkpt lat="48.62894" lon="-2.45781">
        <ele>39.597656</ele>
        <time>2019-10-10T09:12:45.000Z</time>
      </trkpt>
      <trkpt lat="48.6291" lon="-2.45721">
        <ele>41</ele>
        <time>2019-10-10T09:12:58.000Z</time>
      </trkpt>
      <trkpt lat="48.62916" lon="-2.45708">
        <ele>41.199219</ele>
        <time>2019-10-10T09:13:02.000Z</time>
      </trkpt>
      <trkpt lat="48.6292" lon="-2.45696">
        <ele>41.5</ele>
        <time>2019-10-10T09:13:06.000Z</time>
      </trkpt>
      <trkpt lat="48.62926" lon="-2.45684">
        <ele>41.5</ele>
        <time>2019-10-10T09:13:10.000Z</time>
      </trkpt>
      <trkpt lat="48.6293" lon="-2.45671">
        <ele>41.699219</ele>
        <time>2019-10-10T09:13:14.000Z</time>
      </trkpt>
      <trkpt lat="48.62933" lon="-2.45656">
        <ele>42.097656</ele>
        <time>2019-10-10T09:13:18.000Z</time>
      </trkpt>
      <trkpt lat="48.62938" lon="-2.45623">
        <ele>42.5</ele>
        <time>2019-10-10T09:13:26.000Z</time>
      </trkpt>
      <trkpt lat="48.62947" lon="-2.45557">
        <ele>43</ele>
        <time>2019-10-10T09:13:42.000Z</time>
      </trkpt>
      <trkpt lat="48.62949" lon="-2.45528">
        <ele>43.097656</ele>
        <time>2019-10-10T09:13:48.000Z</time>
      </trkpt>
      <trkpt lat="48.62949" lon="-2.45512">
        <ele>43.5</ele>
        <time>2019-10-10T09:13:52.000Z</time>
      </trkpt>
      <trkpt lat="48.62948" lon="-2.45496">
        <ele>43.296875</ele>
        <time>2019-10-10T09:13:57.000Z</time>
      </trkpt>
      <trkpt lat="48.62952" lon="-2.4548">
        <ele>43.097656</ele>
        <time>2019-10-10T09:14:01.000Z</time>
      </trkpt>
      <trkpt lat="48.62955" lon="-2.45466">
        <ele>43.097656</ele>
        <time>2019-10-10T09:14:04.000Z</time>
      </trkpt>
      <trkpt lat="48.62957" lon="-2.45451">
        <ele>43.097656</ele>
        <time>2019-10-10T09:14:07.000Z</time>
      </trkpt>
      <trkpt lat="48.63003" lon="-2.45049">
        <ele>45.097656</ele>
        <time>2019-10-10T09:15:12.000Z</time>
      </trkpt>
      <trkpt lat="48.63014" lon="-2.44966">
        <ele>46.796875</ele>
        <time>2019-10-10T09:15:28.000Z</time>
      </trkpt>
      <trkpt lat="48.63017" lon="-2.44954">
        <ele>46.898438</ele>
        <time>2019-10-10T09:15:33.000Z</time>
      </trkpt>
      <trkpt lat="48.63023" lon="-2.4494">
        <ele>47</ele>
        <time>2019-10-10T09:15:37.000Z</time>
      </trkpt>
      <trkpt lat="48.63035" lon="-2.44909">
        <ele>47.097656</ele>
        <time>2019-10-10T09:15:45.000Z</time>
      </trkpt>
      <trkpt lat="48.63058" lon="-2.44837">
        <ele>47.398438</ele>
        <time>2019-10-10T09:16:00.000Z</time>
      </trkpt>
      <trkpt lat="48.63066" lon="-2.44805">
        <ele>47.597656</ele>
        <time>2019-10-10T09:16:06.000Z</time>
      </trkpt>
      <trkpt lat="48.63073" lon="-2.44772">
        <ele>47.796875</ele>
        <time>2019-10-10T09:16:12.000Z</time>
      </trkpt>
      <trkpt lat="48.63081" lon="-2.44702">
        <ele>48.5</ele>
        <time>2019-10-10T09:16:24.000Z</time>
      </trkpt>
      <trkpt lat="48.63103" lon="-2.44528">
        <ele>51.199219</ele>
        <time>2019-10-10T09:16:58.000Z</time>
      </trkpt>
      <trkpt lat="48.6311" lon="-2.44515">
        <ele>51.398438</ele>
        <time>2019-10-10T09:17:02.000Z</time>
      </trkpt>
      <trkpt lat="48.63121" lon="-2.44514">
        <ele>51.5</ele>
        <time>2019-10-10T09:17:06.000Z</time>
      </trkpt>
      <trkpt lat="48.6314" lon="-2.44515">
        <ele>51.597656</ele>
        <time>2019-10-10T09:17:12.000Z</time>
      </trkpt>
      <trkpt lat="48.6315" lon="-2.4451">
        <ele>51.699219</ele>
        <time>2019-10-10T09:17:15.000Z</time>
      </trkpt>
      <trkpt lat="48.6316" lon="-2.44505">
        <ele>51.5</ele>
        <time>2019-10-10T09:17:18.000Z</time>
      </trkpt>
      <trkpt lat="48.63169" lon="-2.44498">
        <ele>51.398438</ele>
        <time>2019-10-10T09:17:21.000Z</time>
      </trkpt>
      <trkpt lat="48.63213" lon="-2.44469">
        <ele>53.199219</ele>
        <time>2019-10-10T09:17:36.000Z</time>
      </trkpt>
      <trkpt lat="48.63222" lon="-2.44467">
        <ele>52.699219</ele>
        <time>2019-10-10T09:17:39.000Z</time>
      </trkpt>
      <trkpt lat="48.63231" lon="-2.4447">
        <ele>52</ele>
        <time>2019-10-10T09:17:42.000Z</time>
      </trkpt>
      <trkpt lat="48.63239" lon="-2.44477">
        <ele>51.398438</ele>
        <time>2019-10-10T09:17:45.000Z</time>
      </trkpt>
      <trkpt lat="48.63248" lon="-2.44483">
        <ele>51</ele>
        <time>2019-10-10T09:17:49.000Z</time>
      </trkpt>
      <trkpt lat="48.63259" lon="-2.44488">
        <ele>50.597656</ele>
        <time>2019-10-10T09:17:53.000Z</time>
      </trkpt>
      <trkpt lat="48.63267" lon="-2.44476">
        <ele>50.199219</ele>
        <time>2019-10-10T09:17:57.000Z</time>
      </trkpt>
      <trkpt lat="48.63272" lon="-2.44464">
        <ele>49.699219</ele>
        <time>2019-10-10T09:18:00.000Z</time>
      </trkpt>
      <trkpt lat="48.63278" lon="-2.44451">
        <ele>48</ele>
        <time>2019-10-10T09:18:04.000Z</time>
      </trkpt>
      <trkpt lat="48.63288" lon="-2.44458">
        <ele>46.5</ele>
        <time>2019-10-10T09:18:08.000Z</time>
      </trkpt>
      <trkpt lat="48.63296" lon="-2.44468">
        <ele>45.597656</ele>
        <time>2019-10-10T09:18:11.000Z</time>
      </trkpt>
      <trkpt lat="48.63304" lon="-2.44475">
        <ele>44.796875</ele>
        <time>2019-10-10T09:18:14.000Z</time>
      </trkpt>
      <trkpt lat="48.63316" lon="-2.44476">
        <ele>44.199219</ele>
        <time>2019-10-10T09:18:18.000Z</time>
      </trkpt>
      <trkpt lat="48.63326" lon="-2.44474">
        <ele>43.796875</ele>
        <time>2019-10-10T09:18:21.000Z</time>
      </trkpt>
      <trkpt lat="48.63337" lon="-2.44477">
        <ele>43.898438</ele>
        <time>2019-10-10T09:18:24.000Z</time>
      </trkpt>
      <trkpt lat="48.63347" lon="-2.44481">
        <ele>43.796875</ele>
        <time>2019-10-10T09:18:27.000Z</time>
      </trkpt>
      <trkpt lat="48.63355" lon="-2.44486">
        <ele>43.597656</ele>
        <time>2019-10-10T09:18:30.000Z</time>
      </trkpt>
      <trkpt lat="48.63363" lon="-2.44495">
        <ele>44</ele>
        <time>2019-10-10T09:18:36.000Z</time>
      </trkpt>
      <trkpt lat="48.63364" lon="-2.44511">
        <ele>44.199219</ele>
        <time>2019-10-10T09:18:41.000Z</time>
      </trkpt>
      <trkpt lat="48.63359" lon="-2.44524">
        <ele>44.199219</ele>
        <time>2019-10-10T09:18:44.000Z</time>
      </trkpt>
      <trkpt lat="48.63354" lon="-2.44538">
        <ele>44.296875</ele>
        <time>2019-10-10T09:18:47.000Z</time>
      </trkpt>
      <trkpt lat="48.63351" lon="-2.44551">
        <ele>44.597656</ele>
        <time>2019-10-10T09:18:50.000Z</time>
      </trkpt>
      <trkpt lat="48.63356" lon="-2.44563">
        <ele>44.796875</ele>
        <time>2019-10-10T09:18:53.000Z</time>
      </trkpt>
      <trkpt lat="48.63364" lon="-2.44573">
        <ele>44.796875</ele>
        <time>2019-10-10T09:18:56.000Z</time>
      </trkpt>
      <trkpt lat="48.63408" lon="-2.44626">
        <ele>43.398438</ele>
        <time>2019-10-10T09:19:08.000Z</time>
      </trkpt>
      <trkpt lat="48.63417" lon="-2.44635">
        <ele>42.898438</ele>
        <time>2019-10-10T09:19:10.000Z</time>
      </trkpt>
      <trkpt lat="48.63426" lon="-2.4464">
        <ele>41.199219</ele>
        <time>2019-10-10T09:19:12.000Z</time>
      </trkpt>
      <trkpt lat="48.63438" lon="-2.44643">
        <ele>41</ele>
        <time>2019-10-10T09:19:15.000Z</time>
      </trkpt>
      <trkpt lat="48.6345" lon="-2.44644">
        <ele>41.296875</ele>
        <time>2019-10-10T09:19:18.000Z</time>
      </trkpt>
      <trkpt lat="48.63502" lon="-2.44645">
        <ele>44.597656</ele>
        <time>2019-10-10T09:19:33.000Z</time>
      </trkpt>
      <trkpt lat="48.63512" lon="-2.44643">
        <ele>45.398438</ele>
        <time>2019-10-10T09:19:36.000Z</time>
      </trkpt>
      <trkpt lat="48.63522" lon="-2.44638">
        <ele>45.898438</ele>
        <time>2019-10-10T09:19:39.000Z</time>
      </trkpt>
      <trkpt lat="48.63528" lon="-2.44628">
        <ele>46.199219</ele>
        <time>2019-10-10T09:19:42.000Z</time>
      </trkpt>
      <trkpt lat="48.63532" lon="-2.44614">
        <ele>46.398438</ele>
        <time>2019-10-10T09:19:45.000Z</time>
      </trkpt>
      <trkpt lat="48.63537" lon="-2.446">
        <ele>46.199219</ele>
        <time>2019-10-10T09:19:48.000Z</time>
      </trkpt>
      <trkpt lat="48.6354" lon="-2.44584">
        <ele>46.097656</ele>
        <time>2019-10-10T09:19:51.000Z</time>
      </trkpt>
      <trkpt lat="48.63543" lon="-2.44569">
        <ele>45.898438</ele>
        <time>2019-10-10T09:19:54.000Z</time>
      </trkpt>
      <trkpt lat="48.63548" lon="-2.44555">
        <ele>45.898438</ele>
        <time>2019-10-10T09:19:57.000Z</time>
      </trkpt>
      <trkpt lat="48.63555" lon="-2.44543">
        <ele>46.199219</ele>
        <time>2019-10-10T09:20:00.000Z</time>
      </trkpt>
      <trkpt lat="48.63565" lon="-2.44537">
        <ele>46.898438</ele>
        <time>2019-10-10T09:20:03.000Z</time>
      </trkpt>
      <trkpt lat="48.63576" lon="-2.44539">
        <ele>47.597656</ele>
        <time>2019-10-10T09:20:06.000Z</time>
      </trkpt>
      <trkpt lat="48.63586" lon="-2.44543">
        <ele>48.5</ele>
        <time>2019-10-10T09:20:09.000Z</time>
      </trkpt>
      <trkpt lat="48.63698" lon="-2.4459">
        <ele>55.597656</ele>
        <time>2019-10-10T09:20:52.000Z</time>
      </trkpt>
      <trkpt lat="48.63708" lon="-2.44592">
        <ele>70.199219</ele>
        <time>2019-10-10T09:20:56.000Z</time>
      </trkpt>
      <trkpt lat="48.63717" lon="-2.44601">
        <ele>71.097656</ele>
        <time>2019-10-10T09:22:29.000Z</time>
      </trkpt>
      <trkpt lat="48.63726" lon="-2.44597">
        <ele>75.898438</ele>
        <time>2019-10-10T09:22:39.000Z</time>
      </trkpt>
      <trkpt lat="48.63736" lon="-2.44593">
        <ele>77.097656</ele>
        <time>2019-10-10T09:23:38.000Z</time>
      </trkpt>
      <trkpt lat="48.63745" lon="-2.44597">
        <ele>75.796875</ele>
        <time>2019-10-10T09:23:58.000Z</time>
      </trkpt>
      <trkpt lat="48.63765" lon="-2.44603">
        <ele>74</ele>
        <time>2019-10-10T09:24:16.000Z</time>
      </trkpt>
      <trkpt lat="48.63775" lon="-2.44602">
        <ele>73.398438</ele>
        <time>2019-10-10T09:24:21.000Z</time>
      </trkpt>
      <trkpt lat="48.63785" lon="-2.44604">
        <ele>74.296875</ele>
        <time>2019-10-10T09:24:26.000Z</time>
      </trkpt>
      <trkpt lat="48.63796" lon="-2.44606">
        <ele>75.097656</ele>
        <time>2019-10-10T09:24:31.000Z</time>
      </trkpt>
      <trkpt lat="48.63807" lon="-2.44606">
        <ele>74.699219</ele>
        <time>2019-10-10T09:24:36.000Z</time>
      </trkpt>
      <trkpt lat="48.63816" lon="-2.446">
        <ele>74.097656</ele>
        <time>2019-10-10T09:24:50.000Z</time>
      </trkpt>
      <trkpt lat="48.63817" lon="-2.44583">
        <ele>74.097656</ele>
        <time>2019-10-10T09:24:56.000Z</time>
      </trkpt>
      <trkpt lat="48.63818" lon="-2.44568">
        <ele>74</ele>
        <time>2019-10-10T09:25:00.000Z</time>
      </trkpt>
      <trkpt lat="48.6382" lon="-2.44536">
        <ele>73.699219</ele>
        <time>2019-10-10T09:25:07.000Z</time>
      </trkpt>
      <trkpt lat="48.63822" lon="-2.44521">
        <ele>72.699219</ele>
        <time>2019-10-10T09:25:11.000Z</time>
      </trkpt>
      <trkpt lat="48.63834" lon="-2.44516">
        <ele>71.796875</ele>
        <time>2019-10-10T09:25:15.000Z</time>
      </trkpt>
      <trkpt lat="48.63843" lon="-2.44516">
        <ele>71.097656</ele>
        <time>2019-10-10T09:25:17.000Z</time>
      </trkpt>
      <trkpt lat="48.63979" lon="-2.44521">
        <ele>63.199219</ele>
        <time>2019-10-10T09:25:41.000Z</time>
      </trkpt>
      <trkpt lat="48.6424" lon="-2.44541">
        <ele>49</ele>
        <time>2019-10-10T09:26:42.000Z</time>
      </trkpt>
      <trkpt lat="48.6426" lon="-2.44538">
        <ele>48</ele>
        <time>2019-10-10T09:26:49.000Z</time>
      </trkpt>
      <trkpt lat="48.64316" lon="-2.44528">
        <ele>48.199219</ele>
        <time>2019-10-10T09:27:04.000Z</time>
      </trkpt>
      <trkpt lat="48.64328" lon="-2.44524">
        <ele>48.097656</ele>
        <time>2019-10-10T09:27:07.000Z</time>
      </trkpt>
      <trkpt lat="48.64427" lon="-2.44501">
        <ele>44.097656</ele>
        <time>2019-10-10T09:27:30.000Z</time>
      </trkpt>
      <trkpt lat="48.64556" lon="-2.44475">
        <ele>40.199219</ele>
        <time>2019-10-10T09:28:01.000Z</time>
      </trkpt>
      <trkpt lat="48.64566" lon="-2.44476">
        <ele>40.398438</ele>
        <time>2019-10-10T09:28:10.000Z</time>
      </trkpt>
      <trkpt lat="48.64574" lon="-2.44482">
        <ele>39.296875</ele>
        <time>2019-10-10T09:28:19.000Z</time>
      </trkpt>
      <trkpt lat="48.64579" lon="-2.44496">
        <ele>38</ele>
        <time>2019-10-10T09:28:27.000Z</time>
      </trkpt>
      <trkpt lat="48.64588" lon="-2.44507">
        <ele>36.5</ele>
        <time>2019-10-10T09:28:33.000Z</time>
      </trkpt>
      <trkpt lat="48.64594" lon="-2.44518">
        <ele>34.296875</ele>
        <time>2019-10-10T09:28:37.000Z</time>
      </trkpt>
      <trkpt lat="48.64601" lon="-2.44532">
        <ele>32</ele>
        <time>2019-10-10T09:28:42.000Z</time>
      </trkpt>
      <trkpt lat="48.64606" lon="-2.44546">
        <ele>29.898438</ele>
        <time>2019-10-10T09:28:46.000Z</time>
      </trkpt>
      <trkpt lat="48.64613" lon="-2.44558">
        <ele>28.5</ele>
        <time>2019-10-10T09:28:49.000Z</time>
      </trkpt>
      <trkpt lat="48.64621" lon="-2.44571">
        <ele>26.5</ele>
        <time>2019-10-10T09:28:53.000Z</time>
      </trkpt>
      <trkpt lat="48.64629" lon="-2.44584">
        <ele>25.199219</ele>
        <time>2019-10-10T09:28:56.000Z</time>
      </trkpt>
      <trkpt lat="48.64636" lon="-2.44598">
        <ele>25</ele>
        <time>2019-10-10T09:28:59.000Z</time>
      </trkpt>
      <trkpt lat="48.64671" lon="-2.4467">
        <ele>26.199219</ele>
        <time>2019-10-10T09:29:14.000Z</time>
      </trkpt>
      <trkpt lat="48.64686" lon="-2.44702">
        <ele>25.398438</ele>
        <time>2019-10-10T09:29:20.000Z</time>
      </trkpt>
      <trkpt lat="48.64692" lon="-2.44719">
        <ele>25.898438</ele>
        <time>2019-10-10T09:29:23.000Z</time>
      </trkpt>
      <trkpt lat="48.64697" lon="-2.44734">
        <ele>26.296875</ele>
        <time>2019-10-10T09:29:26.000Z</time>
      </trkpt>
      <trkpt lat="48.647" lon="-2.44751">
        <ele>25.5</ele>
        <time>2019-10-10T09:29:29.000Z</time>
      </trkpt>
      <trkpt lat="48.64704" lon="-2.4477">
        <ele>23.398438</ele>
        <time>2019-10-10T09:29:32.000Z</time>
      </trkpt>
      <trkpt lat="48.64711" lon="-2.44785">
        <ele>21.898438</ele>
        <time>2019-10-10T09:29:35.000Z</time>
      </trkpt>
      <trkpt lat="48.64718" lon="-2.44802">
        <ele>21</ele>
        <time>2019-10-10T09:29:38.000Z</time>
      </trkpt>
      <trkpt lat="48.64727" lon="-2.44815">
        <ele>20</ele>
        <time>2019-10-10T09:29:41.000Z</time>
      </trkpt>
      <trkpt lat="48.64737" lon="-2.44828">
        <ele>19.796875</ele>
        <time>2019-10-10T09:29:44.000Z</time>
      </trkpt>
      <trkpt lat="48.64757" lon="-2.4485">
        <ele>18.796875</ele>
        <time>2019-10-10T09:29:50.000Z</time>
      </trkpt>
      <trkpt lat="48.64769" lon="-2.44856">
        <ele>18.5</ele>
        <time>2019-10-10T09:29:53.000Z</time>
      </trkpt>
      <trkpt lat="48.6478" lon="-2.44856">
        <ele>18.097656</ele>
        <time>2019-10-10T09:29:56.000Z</time>
      </trkpt>
      <trkpt lat="48.64792" lon="-2.44856">
        <ele>17</ele>
        <time>2019-10-10T09:29:59.000Z</time>
      </trkpt>
      <trkpt lat="48.64804" lon="-2.4486">
        <ele>17.296875</ele>
        <time>2019-10-10T09:30:02.000Z</time>
      </trkpt>
      <trkpt lat="48.64817" lon="-2.44866">
        <ele>18</ele>
        <time>2019-10-10T09:30:05.000Z</time>
      </trkpt>
      <trkpt lat="48.64826" lon="-2.44871">
        <ele>19</ele>
        <time>2019-10-10T09:30:08.000Z</time>
      </trkpt>
      <trkpt lat="48.64834" lon="-2.44877">
        <ele>19.699219</ele>
        <time>2019-10-10T09:30:13.000Z</time>
      </trkpt>
      <trkpt lat="48.64841" lon="-2.44887">
        <ele>26.296875</ele>
        <time>2019-10-10T09:30:18.000Z</time>
      </trkpt>
      <trkpt lat="48.64844" lon="-2.44901">
        <ele>27.199219</ele>
        <time>2019-10-10T09:34:24.000Z</time>
      </trkpt>
      <trkpt lat="48.64842" lon="-2.44915">
        <ele>27.597656</ele>
        <time>2019-10-10T09:34:30.000Z</time>
      </trkpt>
      <trkpt lat="48.64839" lon="-2.44929">
        <ele>27.597656</ele>
        <time>2019-10-10T09:34:36.000Z</time>
      </trkpt>
      <trkpt lat="48.64835" lon="-2.44945">
        <ele>27.898438</ele>
        <time>2019-10-10T09:34:41.000Z</time>
      </trkpt>
      <trkpt lat="48.64831" lon="-2.44958">
        <ele>28.296875</ele>
        <time>2019-10-10T09:34:45.000Z</time>
      </trkpt>
      <trkpt lat="48.64825" lon="-2.44969">
        <ele>28.898438</ele>
        <time>2019-10-10T09:34:49.000Z</time>
      </trkpt>
      <trkpt lat="48.64818" lon="-2.44981">
        <ele>29.5</ele>
        <time>2019-10-10T09:34:54.000Z</time>
      </trkpt>
      <trkpt lat="48.64811" lon="-2.44992">
        <ele>31.097656</ele>
        <time>2019-10-10T09:34:59.000Z</time>
      </trkpt>
      <trkpt lat="48.64801" lon="-2.45">
        <ele>32.699219</ele>
        <time>2019-10-10T09:35:04.000Z</time>
      </trkpt>
      <trkpt lat="48.64791" lon="-2.45006">
        <ele>33.699219</ele>
        <time>2019-10-10T09:35:09.000Z</time>
      </trkpt>
      <trkpt lat="48.64781" lon="-2.45008">
        <ele>34.296875</ele>
        <time>2019-10-10T09:35:14.000Z</time>
      </trkpt>
      <trkpt lat="48.64771" lon="-2.4501">
        <ele>33.898438</ele>
        <time>2019-10-10T09:35:19.000Z</time>
      </trkpt>
      <trkpt lat="48.64763" lon="-2.4502">
        <ele>32.898438</ele>
        <time>2019-10-10T09:35:23.000Z</time>
      </trkpt>
      <trkpt lat="48.64758" lon="-2.45032">
        <ele>32</ele>
        <time>2019-10-10T09:35:27.000Z</time>
      </trkpt>
      <trkpt lat="48.64755" lon="-2.45045">
        <ele>31.699219</ele>
        <time>2019-10-10T09:35:30.000Z</time>
      </trkpt>
      <trkpt lat="48.64756" lon="-2.4506">
        <ele>31</ele>
        <time>2019-10-10T09:35:33.000Z</time>
      </trkpt>
      <trkpt lat="48.64756" lon="-2.45077">
        <ele>30.5</ele>
        <time>2019-10-10T09:35:37.000Z</time>
      </trkpt>
      <trkpt lat="48.64758" lon="-2.45136">
        <ele>29.5</ele>
        <time>2019-10-10T09:35:49.000Z</time>
      </trkpt>
      <trkpt lat="48.64755" lon="-2.4515">
        <ele>29</ele>
        <time>2019-10-10T09:35:53.000Z</time>
      </trkpt>
      <trkpt lat="48.6475" lon="-2.45162">
        <ele>28.914063</ele>
        <time>2019-10-10T09:35:56.000Z</time>
      </trkpt>
      <trkpt lat="48.64745" lon="-2.45172">
        <ele>29.5</ele>
        <time>2019-10-10T09:36:06.000Z</time>
      </trkpt>
      <trkpt lat="48.64737" lon="-2.45183">
        <ele>30.296875</ele>
        <time>2019-10-10T09:36:10.000Z</time>
      </trkpt>
      <trkpt lat="48.64731" lon="-2.45195">
        <ele>31.097656</ele>
        <time>2019-10-10T09:36:14.000Z</time>
      </trkpt>
      <trkpt lat="48.64725" lon="-2.45207">
        <ele>31</ele>
        <time>2019-10-10T09:36:18.000Z</time>
      </trkpt>
      <trkpt lat="48.64722" lon="-2.4522">
        <ele>30.699219</ele>
        <time>2019-10-10T09:36:22.000Z</time>
      </trkpt>
      <trkpt lat="48.64719" lon="-2.45234">
        <ele>29.796875</ele>
        <time>2019-10-10T09:36:25.000Z</time>
      </trkpt>
      <trkpt lat="48.64715" lon="-2.45268">
        <ele>28.398438</ele>
        <time>2019-10-10T09:36:31.000Z</time>
      </trkpt>
      <trkpt lat="48.64711" lon="-2.45283">
        <ele>27.097656</ele>
        <time>2019-10-10T09:36:34.000Z</time>
      </trkpt>
      <trkpt lat="48.64707" lon="-2.45296">
        <ele>25.796875</ele>
        <time>2019-10-10T09:36:37.000Z</time>
      </trkpt>
      <trkpt lat="48.64705" lon="-2.45311">
        <ele>24.5</ele>
        <time>2019-10-10T09:36:40.000Z</time>
      </trkpt>
      <trkpt lat="48.64698" lon="-2.45323">
        <ele>23.5</ele>
        <time>2019-10-10T09:36:43.000Z</time>
      </trkpt>
      <trkpt lat="48.64691" lon="-2.45335">
        <ele>21.796875</ele>
        <time>2019-10-10T09:36:46.000Z</time>
      </trkpt>
      <trkpt lat="48.64698" lon="-2.45349">
        <ele>21.5</ele>
        <time>2019-10-10T09:36:50.000Z</time>
      </trkpt>
      <trkpt lat="48.64707" lon="-2.45355">
        <ele>21.898438</ele>
        <time>2019-10-10T09:36:53.000Z</time>
      </trkpt>
      <trkpt lat="48.64734" lon="-2.45371">
        <ele>22.597656</ele>
        <time>2019-10-10T09:37:02.000Z</time>
      </trkpt>
      <trkpt lat="48.64743" lon="-2.45379">
        <ele>23.296875</ele>
        <time>2019-10-10T09:37:06.000Z</time>
      </trkpt>
      <trkpt lat="48.64744" lon="-2.45395">
        <ele>24.398438</ele>
        <time>2019-10-10T09:37:11.000Z</time>
      </trkpt>
      <trkpt lat="48.64736" lon="-2.45403">
        <ele>25.5</ele>
        <time>2019-10-10T09:37:15.000Z</time>
      </trkpt>
      <trkpt lat="48.64727" lon="-2.45411">
        <ele>26.699219</ele>
        <time>2019-10-10T09:37:19.000Z</time>
      </trkpt>
      <trkpt lat="48.64708" lon="-2.45425">
        <ele>27.796875</ele>
        <time>2019-10-10T09:37:27.000Z</time>
      </trkpt>
      <trkpt lat="48.647" lon="-2.45433">
        <ele>28.5</ele>
        <time>2019-10-10T09:37:31.000Z</time>
      </trkpt>
      <trkpt lat="48.64691" lon="-2.45443">
        <ele>29.898438</ele>
        <time>2019-10-10T09:37:35.000Z</time>
      </trkpt>
      <trkpt lat="48.64684" lon="-2.45455">
        <ele>30.898438</ele>
        <time>2019-10-10T09:37:39.000Z</time>
      </trkpt>
      <trkpt lat="48.6464" lon="-2.45524">
        <ele>35.597656</ele>
        <time>2019-10-10T09:38:03.000Z</time>
      </trkpt>
      <trkpt lat="48.64634" lon="-2.45537">
        <ele>36.199219</ele>
        <time>2019-10-10T09:38:07.000Z</time>
      </trkpt>
      <trkpt lat="48.64627" lon="-2.4555">
        <ele>36.199219</ele>
        <time>2019-10-10T09:38:11.000Z</time>
      </trkpt>
      <trkpt lat="48.64604" lon="-2.45602">
        <ele>38.097656</ele>
        <time>2019-10-10T09:38:24.000Z</time>
      </trkpt>
      <trkpt lat="48.64594" lon="-2.45629">
        <ele>38.597656</ele>
        <time>2019-10-10T09:38:31.000Z</time>
      </trkpt>
      <trkpt lat="48.64501" lon="-2.4588">
        <ele>45.898438</ele>
        <time>2019-10-10T09:39:23.000Z</time>
      </trkpt>
      <trkpt lat="48.64494" lon="-2.45892">
        <ele>46.5</ele>
        <time>2019-10-10T09:39:26.000Z</time>
      </trkpt>
      <trkpt lat="48.64483" lon="-2.45902">
        <ele>46.898438</ele>
        <time>2019-10-10T09:39:29.000Z</time>
      </trkpt>
      <trkpt lat="48.64463" lon="-2.45917">
        <ele>45.296875</ele>
        <time>2019-10-10T09:39:35.000Z</time>
      </trkpt>
      <trkpt lat="48.64424" lon="-2.45948">
        <ele>41.296875</ele>
        <time>2019-10-10T09:39:47.000Z</time>
      </trkpt>
      <trkpt lat="48.64392" lon="-2.4597">
        <ele>36.898438</ele>
        <time>2019-10-10T09:39:56.000Z</time>
      </trkpt>
      <trkpt lat="48.64381" lon="-2.45977">
        <ele>35.699219</ele>
        <time>2019-10-10T09:39:59.000Z</time>
      </trkpt>
      <trkpt lat="48.64361" lon="-2.45986">
        <ele>36.699219</ele>
        <time>2019-10-10T09:40:07.000Z</time>
      </trkpt>
      <trkpt lat="48.64357" lon="-2.46">
        <ele>37</ele>
        <time>2019-10-10T09:40:13.000Z</time>
      </trkpt>
      <trkpt lat="48.64355" lon="-2.46015">
        <ele>36</ele>
        <time>2019-10-10T09:40:17.000Z</time>
      </trkpt>
      <trkpt lat="48.64341" lon="-2.46139">
        <ele>40.5</ele>
        <time>2019-10-10T09:40:44.000Z</time>
      </trkpt>
      <trkpt lat="48.64341" lon="-2.46153">
        <ele>41.5</ele>
        <time>2019-10-10T09:40:47.000Z</time>
      </trkpt>
      <trkpt lat="48.64339" lon="-2.46166">
        <ele>42.296875</ele>
        <time>2019-10-10T09:40:50.000Z</time>
      </trkpt>
      <trkpt lat="48.64337" lon="-2.46183">
        <ele>42.796875</ele>
        <time>2019-10-10T09:40:54.000Z</time>
      </trkpt>
      <trkpt lat="48.64325" lon="-2.46318">
        <ele>42</ele>
        <time>2019-10-10T09:41:26.000Z</time>
      </trkpt>
      <trkpt lat="48.64328" lon="-2.46332">
        <ele>42.898438</ele>
        <time>2019-10-10T09:41:31.000Z</time>
      </trkpt>
      <trkpt lat="48.64339" lon="-2.46336">
        <ele>43.597656</ele>
        <time>2019-10-10T09:41:36.000Z</time>
      </trkpt>
      <trkpt lat="48.64349" lon="-2.46336">
        <ele>44.199219</ele>
        <time>2019-10-10T09:41:39.000Z</time>
      </trkpt>
      <trkpt lat="48.64372" lon="-2.46337">
        <ele>44.5</ele>
        <time>2019-10-10T09:41:45.000Z</time>
      </trkpt>
      <trkpt lat="48.64407" lon="-2.4634">
        <ele>45.398438</ele>
        <time>2019-10-10T09:41:54.000Z</time>
      </trkpt>
      <trkpt lat="48.64416" lon="-2.46343">
        <ele>45.199219</ele>
        <time>2019-10-10T09:41:57.000Z</time>
      </trkpt>
      <trkpt lat="48.6442" lon="-2.46356">
        <ele>44.597656</ele>
        <time>2019-10-10T09:42:00.000Z</time>
      </trkpt>
      <trkpt lat="48.64427" lon="-2.46386">
        <ele>44.398438</ele>
        <time>2019-10-10T09:42:06.000Z</time>
      </trkpt>
      <trkpt lat="48.64443" lon="-2.46475">
        <ele>43.296875</ele>
        <time>2019-10-10T09:42:21.000Z</time>
      </trkpt>
      <trkpt lat="48.64483" lon="-2.46734">
        <ele>45.898438</ele>
        <time>2019-10-10T09:43:02.000Z</time>
      </trkpt>
      <trkpt lat="48.64483" lon="-2.46751">
        <ele>46.199219</ele>
        <time>2019-10-10T09:43:05.000Z</time>
      </trkpt>
      <trkpt lat="48.64471" lon="-2.46754">
        <ele>46.398438</ele>
        <time>2019-10-10T09:43:09.000Z</time>
      </trkpt>
      <trkpt lat="48.64462" lon="-2.46755">
        <ele>46.796875</ele>
        <time>2019-10-10T09:43:12.000Z</time>
      </trkpt>
      <trkpt lat="48.64409" lon="-2.46755">
        <ele>43.199219</ele>
        <time>2019-10-10T09:43:30.000Z</time>
      </trkpt>
      <trkpt lat="48.64346" lon="-2.46754">
        <ele>45.597656</ele>
        <time>2019-10-10T09:43:49.000Z</time>
      </trkpt>
      <trkpt lat="48.64336" lon="-2.46757">
        <ele>46</ele>
        <time>2019-10-10T09:43:52.000Z</time>
      </trkpt>
      <trkpt lat="48.6433" lon="-2.46771">
        <ele>47.199219</ele>
        <time>2019-10-10T09:43:56.000Z</time>
      </trkpt>
      <trkpt lat="48.64324" lon="-2.46787">
        <ele>47.398438</ele>
        <time>2019-10-10T09:44:00.000Z</time>
      </trkpt>
      <trkpt lat="48.64323" lon="-2.468">
        <ele>48</ele>
        <time>2019-10-10T09:44:03.000Z</time>
      </trkpt>
      <trkpt lat="48.64322" lon="-2.46817">
        <ele>47.898438</ele>
        <time>2019-10-10T09:44:06.000Z</time>
      </trkpt>
      <trkpt lat="48.64322" lon="-2.46833">
        <ele>46.398438</ele>
        <time>2019-10-10T09:44:09.000Z</time>
      </trkpt>
      <trkpt lat="48.64321" lon="-2.47001">
        <ele>45.898438</ele>
        <time>2019-10-10T09:44:39.000Z</time>
      </trkpt>
      <trkpt lat="48.6432" lon="-2.47018">
        <ele>47.699219</ele>
        <time>2019-10-10T09:44:42.000Z</time>
      </trkpt>
      <trkpt lat="48.64314" lon="-2.47034">
        <ele>49.199219</ele>
        <time>2019-10-10T09:44:45.000Z</time>
      </trkpt>
      <trkpt lat="48.64307" lon="-2.47047">
        <ele>50.398438</ele>
        <time>2019-10-10T09:44:48.000Z</time>
      </trkpt>
      <trkpt lat="48.64299" lon="-2.47059">
        <ele>51.398438</ele>
        <time>2019-10-10T09:44:51.000Z</time>
      </trkpt>
      <trkpt lat="48.64291" lon="-2.4707">
        <ele>52.398438</ele>
        <time>2019-10-10T09:44:54.000Z</time>
      </trkpt>
      <trkpt lat="48.64282" lon="-2.47076">
        <ele>53.398438</ele>
        <time>2019-10-10T09:44:57.000Z</time>
      </trkpt>
      <trkpt lat="48.64272" lon="-2.47079">
        <ele>54.5</ele>
        <time>2019-10-10T09:45:00.000Z</time>
      </trkpt>
      <trkpt lat="48.64263" lon="-2.4708">
        <ele>55.597656</ele>
        <time>2019-10-10T09:45:03.000Z</time>
      </trkpt>
      <trkpt lat="48.64244" lon="-2.47082">
        <ele>57</ele>
        <time>2019-10-10T09:45:09.000Z</time>
      </trkpt>
      <trkpt lat="48.64235" lon="-2.47085">
        <ele>57.5</ele>
        <time>2019-10-10T09:45:12.000Z</time>
      </trkpt>
      <trkpt lat="48.64224" lon="-2.47084">
        <ele>58.5</ele>
        <time>2019-10-10T09:45:16.000Z</time>
      </trkpt>
      <trkpt lat="48.64213" lon="-2.47086">
        <ele>58.398438</ele>
        <time>2019-10-10T09:45:26.000Z</time>
      </trkpt>
      <trkpt lat="48.64184" lon="-2.47092">
        <ele>57</ele>
        <time>2019-10-10T09:45:40.000Z</time>
      </trkpt>
      <trkpt lat="48.64175" lon="-2.47096">
        <ele>57.699219</ele>
        <time>2019-10-10T09:46:12.000Z</time>
      </trkpt>
      <trkpt lat="48.64174" lon="-2.47111">
        <ele>57.398438</ele>
        <time>2019-10-10T09:46:18.000Z</time>
      </trkpt>
      <trkpt lat="48.64173" lon="-2.47142">
        <ele>56.898438</ele>
        <time>2019-10-10T09:46:25.000Z</time>
      </trkpt>
      <trkpt lat="48.64169" lon="-2.47261">
        <ele>55.199219</ele>
        <time>2019-10-10T09:46:46.000Z</time>
      </trkpt>
      <trkpt lat="48.64172" lon="-2.47274">
        <ele>56.199219</ele>
        <time>2019-10-10T09:46:52.000Z</time>
      </trkpt>
      <trkpt lat="48.64169" lon="-2.4729">
        <ele>55.898438</ele>
        <time>2019-10-10T09:47:01.000Z</time>
      </trkpt>
      <trkpt lat="48.6417" lon="-2.47308">
        <ele>55.398438</ele>
        <time>2019-10-10T09:47:05.000Z</time>
      </trkpt>
      <trkpt lat="48.64171" lon="-2.47361">
        <ele>54.699219</ele>
        <time>2019-10-10T09:47:14.000Z</time>
      </trkpt>
      <trkpt lat="48.6417" lon="-2.47376">
        <ele>54.699219</ele>
        <time>2019-10-10T09:47:17.000Z</time>
      </trkpt>
      <trkpt lat="48.64169" lon="-2.47406">
        <ele>54.898438</ele>
        <time>2019-10-10T09:47:24.000Z</time>
      </trkpt>
      <trkpt lat="48.6417" lon="-2.47421">
        <ele>54.398438</ele>
        <time>2019-10-10T09:47:27.000Z</time>
      </trkpt>
      <trkpt lat="48.64172" lon="-2.47438">
        <ele>53.597656</ele>
        <time>2019-10-10T09:47:30.000Z</time>
      </trkpt>
      <trkpt lat="48.64173" lon="-2.47456">
        <ele>52.796875</ele>
        <time>2019-10-10T09:47:33.000Z</time>
      </trkpt>
      <trkpt lat="48.6417" lon="-2.4747">
        <ele>52</ele>
        <time>2019-10-10T09:47:36.000Z</time>
      </trkpt>
      <trkpt lat="48.64164" lon="-2.47497">
        <ele>49.699219</ele>
        <time>2019-10-10T09:47:40.000Z</time>
      </trkpt>
      <trkpt lat="48.6416" lon="-2.47516">
        <ele>48.398438</ele>
        <time>2019-10-10T09:47:43.000Z</time>
      </trkpt>
      <trkpt lat="48.6416" lon="-2.47534">
        <ele>48</ele>
        <time>2019-10-10T09:47:46.000Z</time>
      </trkpt>
      <trkpt lat="48.64159" lon="-2.47645">
        <ele>53</ele>
        <time>2019-10-10T09:48:07.000Z</time>
      </trkpt>
      <trkpt lat="48.64155" lon="-2.47661">
        <ele>54.296875</ele>
        <time>2019-10-10T09:48:11.000Z</time>
      </trkpt>
      <trkpt lat="48.64154" lon="-2.47677">
        <ele>54.898438</ele>
        <time>2019-10-10T09:48:15.000Z</time>
      </trkpt>
      <trkpt lat="48.64154" lon="-2.47691">
        <ele>55.296875</ele>
        <time>2019-10-10T09:48:19.000Z</time>
      </trkpt>
      <trkpt lat="48.64157" lon="-2.47707">
        <ele>55.398438</ele>
        <time>2019-10-10T09:48:23.000Z</time>
      </trkpt>
      <trkpt lat="48.6416" lon="-2.4772">
        <ele>55.296875</ele>
        <time>2019-10-10T09:48:26.000Z</time>
      </trkpt>
      <trkpt lat="48.64161" lon="-2.47735">
        <ele>54.796875</ele>
        <time>2019-10-10T09:48:29.000Z</time>
      </trkpt>
      <trkpt lat="48.6416" lon="-2.47754">
        <ele>54.296875</ele>
        <time>2019-10-10T09:48:32.000Z</time>
      </trkpt>
      <trkpt lat="48.64158" lon="-2.47768">
        <ele>54</ele>
        <time>2019-10-10T09:48:34.000Z</time>
      </trkpt>
      <trkpt lat="48.64159" lon="-2.47782">
        <ele>54.199219</ele>
        <time>2019-10-10T09:48:36.000Z</time>
      </trkpt>
      <trkpt lat="48.64166" lon="-2.47799">
        <ele>54.398438</ele>
        <time>2019-10-10T09:48:39.000Z</time>
      </trkpt>
      <trkpt lat="48.64173" lon="-2.47811">
        <ele>54.5</ele>
        <time>2019-10-10T09:48:42.000Z</time>
      </trkpt>
      <trkpt lat="48.6418" lon="-2.47824">
        <ele>54.296875</ele>
        <time>2019-10-10T09:48:45.000Z</time>
      </trkpt>
      <trkpt lat="48.64186" lon="-2.47839">
        <ele>53.597656</ele>
        <time>2019-10-10T09:48:48.000Z</time>
      </trkpt>
      <trkpt lat="48.64188" lon="-2.47858">
        <ele>53.097656</ele>
        <time>2019-10-10T09:48:51.000Z</time>
      </trkpt>
      <trkpt lat="48.64191" lon="-2.47901">
        <ele>52</ele>
        <time>2019-10-10T09:48:57.000Z</time>
      </trkpt>
      <trkpt lat="48.64192" lon="-2.47917">
        <ele>51.699219</ele>
        <time>2019-10-10T09:48:59.000Z</time>
      </trkpt>
      <trkpt lat="48.64191" lon="-2.47932">
        <ele>51.699219</ele>
        <time>2019-10-10T09:49:01.000Z</time>
      </trkpt>
      <trkpt lat="48.64187" lon="-2.47944">
        <ele>52.398438</ele>
        <time>2019-10-10T09:49:03.000Z</time>
      </trkpt>
      <trkpt lat="48.64178" lon="-2.4795">
        <ele>53.097656</ele>
        <time>2019-10-10T09:49:06.000Z</time>
      </trkpt>
      <trkpt lat="48.64169" lon="-2.47953">
        <ele>53.398438</ele>
        <time>2019-10-10T09:49:10.000Z</time>
      </trkpt>
      <trkpt lat="48.64148" lon="-2.47959">
        <ele>53</ele>
        <time>2019-10-10T09:49:17.000Z</time>
      </trkpt>
      <trkpt lat="48.64136" lon="-2.47966">
        <ele>52.898438</ele>
        <time>2019-10-10T09:49:20.000Z</time>
      </trkpt>
      <trkpt lat="48.64091" lon="-2.47994">
        <ele>54.296875</ele>
        <time>2019-10-10T09:49:32.000Z</time>
      </trkpt>
      <trkpt lat="48.64071" lon="-2.48008">
        <ele>55.5</ele>
        <time>2019-10-10T09:49:39.000Z</time>
      </trkpt>
      <trkpt lat="48.64052" lon="-2.48023">
        <ele>58</ele>
        <time>2019-10-10T09:49:47.000Z</time>
      </trkpt>
      <trkpt lat="48.64042" lon="-2.48027">
        <ele>58.898438</ele>
        <time>2019-10-10T09:49:51.000Z</time>
      </trkpt>
      <trkpt lat="48.64031" lon="-2.48027">
        <ele>59.296875</ele>
        <time>2019-10-10T09:49:55.000Z</time>
      </trkpt>
      <trkpt lat="48.63979" lon="-2.48028">
        <ele>58.398438</ele>
        <time>2019-10-10T09:50:15.000Z</time>
      </trkpt>
      <trkpt lat="48.63968" lon="-2.4803">
        <ele>58</ele>
        <time>2019-10-10T09:50:19.000Z</time>
      </trkpt>
      <trkpt lat="48.63956" lon="-2.48034">
        <ele>57.398438</ele>
        <time>2019-10-10T09:50:23.000Z</time>
      </trkpt>
      <trkpt lat="48.63947" lon="-2.48037">
        <ele>57.699219</ele>
        <time>2019-10-10T09:50:27.000Z</time>
      </trkpt>
      <trkpt lat="48.63943" lon="-2.48052">
        <ele>58.398438</ele>
        <time>2019-10-10T09:50:33.000Z</time>
      </trkpt>
      <trkpt lat="48.63947" lon="-2.48064">
        <ele>59.199219</ele>
        <time>2019-10-10T09:50:37.000Z</time>
      </trkpt>
      <trkpt lat="48.63951" lon="-2.48079">
        <ele>60.296875</ele>
        <time>2019-10-10T09:50:41.000Z</time>
      </trkpt>
      <trkpt lat="48.63957" lon="-2.48094">
        <ele>61.296875</ele>
        <time>2019-10-10T09:50:45.000Z</time>
      </trkpt>
      <trkpt lat="48.63962" lon="-2.48108">
        <ele>61.597656</ele>
        <time>2019-10-10T09:50:49.000Z</time>
      </trkpt>
      <trkpt lat="48.63964" lon="-2.48124">
        <ele>65.296875</ele>
        <time>2019-10-10T09:50:54.000Z</time>
      </trkpt>
      <trkpt lat="48.63973" lon="-2.4813">
        <ele>64.296875</ele>
        <time>2019-10-10T09:55:43.000Z</time>
      </trkpt>
      <trkpt lat="48.63982" lon="-2.48142">
        <ele>63.097656</ele>
        <time>2019-10-10T09:55:48.000Z</time>
      </trkpt>
      <trkpt lat="48.63991" lon="-2.48152">
        <ele>62.296875</ele>
        <time>2019-10-10T09:55:51.000Z</time>
      </trkpt>
      <trkpt lat="48.63999" lon="-2.48159">
        <ele>61.597656</ele>
        <time>2019-10-10T09:55:53.000Z</time>
      </trkpt>
      <trkpt lat="48.64027" lon="-2.48182">
        <ele>59.898438</ele>
        <time>2019-10-10T09:55:59.000Z</time>
      </trkpt>
      <trkpt lat="48.64142" lon="-2.48265">
        <ele>54.796875</ele>
        <time>2019-10-10T09:56:24.000Z</time>
      </trkpt>
      <trkpt lat="48.64153" lon="-2.48277">
        <ele>54.796875</ele>
        <time>2019-10-10T09:56:26.000Z</time>
      </trkpt>
      <trkpt lat="48.64186" lon="-2.48318">
        <ele>54.296875</ele>
        <time>2019-10-10T09:56:34.000Z</time>
      </trkpt>
      <trkpt lat="48.64197" lon="-2.48326">
        <ele>53.597656</ele>
        <time>2019-10-10T09:56:37.000Z</time>
      </trkpt>
      <trkpt lat="48.64209" lon="-2.4833">
        <ele>52.796875</ele>
        <time>2019-10-10T09:56:40.000Z</time>
      </trkpt>
      <trkpt lat="48.64219" lon="-2.48336">
        <ele>52.296875</ele>
        <time>2019-10-10T09:56:43.000Z</time>
      </trkpt>
      <trkpt lat="48.64227" lon="-2.48345">
        <ele>52.097656</ele>
        <time>2019-10-10T09:56:47.000Z</time>
      </trkpt>
      <trkpt lat="48.64229" lon="-2.48361">
        <ele>52.199219</ele>
        <time>2019-10-10T09:56:52.000Z</time>
      </trkpt>
      <trkpt lat="48.64227" lon="-2.48376">
        <ele>51</ele>
        <time>2019-10-10T09:56:57.000Z</time>
      </trkpt>
      <trkpt lat="48.64221" lon="-2.48365">
        <ele>51</ele>
        <time>2019-10-10T09:59:14.000Z</time>
      </trkpt>
      <trkpt lat="48.64227" lon="-2.48354">
        <ele>50.398438</ele>
        <time>2019-10-10T09:59:24.000Z</time>
      </trkpt>
      <trkpt lat="48.64223" lon="-2.4834">
        <ele>50.898438</ele>
        <time>2019-10-10T10:01:51.000Z</time>
      </trkpt>
      <trkpt lat="48.64214" lon="-2.48336">
        <ele>51.398438</ele>
        <time>2019-10-10T10:01:56.000Z</time>
      </trkpt>
      <trkpt lat="48.64204" lon="-2.48331">
        <ele>51.796875</ele>
        <time>2019-10-10T10:02:02.000Z</time>
      </trkpt>
      <trkpt lat="48.64194" lon="-2.4833">
        <ele>52.199219</ele>
        <time>2019-10-10T10:02:06.000Z</time>
      </trkpt>
      <trkpt lat="48.64184" lon="-2.48323">
        <ele>52.296875</ele>
        <time>2019-10-10T10:02:10.000Z</time>
      </trkpt>
      <trkpt lat="48.64176" lon="-2.48313">
        <ele>52.296875</ele>
        <time>2019-10-10T10:02:14.000Z</time>
      </trkpt>
      <trkpt lat="48.64143" lon="-2.48271">
        <ele>51.796875</ele>
        <time>2019-10-10T10:02:26.000Z</time>
      </trkpt>
      <trkpt lat="48.64133" lon="-2.48262">
        <ele>52.097656</ele>
        <time>2019-10-10T10:02:29.000Z</time>
      </trkpt>
      <trkpt lat="48.64076" lon="-2.4822">
        <ele>56.097656</ele>
        <time>2019-10-10T10:02:49.000Z</time>
      </trkpt>
      <trkpt lat="48.64" lon="-2.48167">
        <ele>57.097656</ele>
        <time>2019-10-10T10:03:09.000Z</time>
      </trkpt>
      <trkpt lat="48.63992" lon="-2.48159">
        <ele>57.898438</ele>
        <time>2019-10-10T10:03:12.000Z</time>
      </trkpt>
      <trkpt lat="48.63985" lon="-2.48151">
        <ele>58.898438</ele>
        <time>2019-10-10T10:03:15.000Z</time>
      </trkpt>
      <trkpt lat="48.63977" lon="-2.48142">
        <ele>59.699219</ele>
        <time>2019-10-10T10:03:18.000Z</time>
      </trkpt>
      <trkpt lat="48.63971" lon="-2.48133">
        <ele>60.296875</ele>
        <time>2019-10-10T10:03:21.000Z</time>
      </trkpt>
      <trkpt lat="48.63965" lon="-2.48121">
        <ele>60.597656</ele>
        <time>2019-10-10T10:03:24.000Z</time>
      </trkpt>
      <trkpt lat="48.63958" lon="-2.4811">
        <ele>60.097656</ele>
        <time>2019-10-10T10:03:27.000Z</time>
      </trkpt>
      <trkpt lat="48.63951" lon="-2.48094">
        <ele>59.199219</ele>
        <time>2019-10-10T10:03:30.000Z</time>
      </trkpt>
      <trkpt lat="48.63946" lon="-2.48079">
        <ele>58</ele>
        <time>2019-10-10T10:03:32.000Z</time>
      </trkpt>
      <trkpt lat="48.63937" lon="-2.48045">
        <ele>56.597656</ele>
        <time>2019-10-10T10:03:36.000Z</time>
      </trkpt>
      <trkpt lat="48.63817" lon="-2.47577">
        <ele>57.796875</ele>
        <time>2019-10-10T10:04:47.000Z</time>
      </trkpt>
      <trkpt lat="48.63814" lon="-2.47563">
        <ele>55.699219</ele>
        <time>2019-10-10T10:04:49.000Z</time>
      </trkpt>
      <trkpt lat="48.63812" lon="-2.47549">
        <ele>55.296875</ele>
        <time>2019-10-10T10:04:51.000Z</time>
      </trkpt>
      <trkpt lat="48.63809" lon="-2.47536">
        <ele>55.699219</ele>
        <time>2019-10-10T10:04:53.000Z</time>
      </trkpt>
      <trkpt lat="48.63784" lon="-2.47449">
        <ele>52.5</ele>
        <time>2019-10-10T10:05:08.000Z</time>
      </trkpt>
      <trkpt lat="48.63783" lon="-2.47434">
        <ele>50.5</ele>
        <time>2019-10-10T10:05:12.000Z</time>
      </trkpt>
      <trkpt lat="48.6378" lon="-2.4742">
        <ele>49.296875</ele>
        <time>2019-10-10T10:05:16.000Z</time>
      </trkpt>
      <trkpt lat="48.63771" lon="-2.4739">
        <ele>48.699219</ele>
        <time>2019-10-10T10:05:22.000Z</time>
      </trkpt>
      <trkpt lat="48.63767" lon="-2.47372">
        <ele>48</ele>
        <time>2019-10-10T10:05:25.000Z</time>
      </trkpt>
      <trkpt lat="48.63766" lon="-2.47353">
        <ele>47.398438</ele>
        <time>2019-10-10T10:05:28.000Z</time>
      </trkpt>
      <trkpt lat="48.6377" lon="-2.47336">
        <ele>46.796875</ele>
        <time>2019-10-10T10:05:31.000Z</time>
      </trkpt>
      <trkpt lat="48.63774" lon="-2.4732">
        <ele>46.699219</ele>
        <time>2019-10-10T10:05:34.000Z</time>
      </trkpt>
      <trkpt lat="48.6378" lon="-2.47303">
        <ele>47.296875</ele>
        <time>2019-10-10T10:05:37.000Z</time>
      </trkpt>
      <trkpt lat="48.6381" lon="-2.4723">
        <ele>51.097656</ele>
        <time>2019-10-10T10:05:52.000Z</time>
      </trkpt>
      <trkpt lat="48.63816" lon="-2.47218">
        <ele>51.199219</ele>
        <time>2019-10-10T10:05:55.000Z</time>
      </trkpt>
      <trkpt lat="48.63897" lon="-2.4705">
        <ele>51.597656</ele>
        <time>2019-10-10T10:06:31.000Z</time>
      </trkpt>
      <trkpt lat="48.63961" lon="-2.46909">
        <ele>57.5</ele>
        <time>2019-10-10T10:07:01.000Z</time>
      </trkpt>
      <trkpt lat="48.63969" lon="-2.46919">
        <ele>58.5</ele>
        <time>2019-10-10T10:08:07.000Z</time>
      </trkpt>
      <trkpt lat="48.6397" lon="-2.46934">
        <ele>59.699219</ele>
        <time>2019-10-10T10:08:10.000Z</time>
      </trkpt>
      <trkpt lat="48.63973" lon="-2.46947">
        <ele>60.597656</ele>
        <time>2019-10-10T10:08:13.000Z</time>
      </trkpt>
      <trkpt lat="48.63977" lon="-2.46961">
        <ele>60.5</ele>
        <time>2019-10-10T10:08:17.000Z</time>
      </trkpt>
      <trkpt lat="48.63986" lon="-2.46959">
        <ele>59.398438</ele>
        <time>2019-10-10T10:08:43.000Z</time>
      </trkpt>
      <trkpt lat="48.63991" lon="-2.46946">
        <ele>58.796875</ele>
        <time>2019-10-10T10:08:48.000Z</time>
      </trkpt>
      <trkpt lat="48.63999" lon="-2.46933">
        <ele>59.5</ele>
        <time>2019-10-10T10:08:52.000Z</time>
      </trkpt>
      <trkpt lat="48.64005" lon="-2.46924">
        <ele>60.296875</ele>
        <time>2019-10-10T10:08:55.000Z</time>
      </trkpt>
      <trkpt lat="48.64012" lon="-2.46913">
        <ele>61.398438</ele>
        <time>2019-10-10T10:09:00.000Z</time>
      </trkpt>
      <trkpt lat="48.64022" lon="-2.46917">
        <ele>62.898438</ele>
        <time>2019-10-10T10:09:06.000Z</time>
      </trkpt>
      <trkpt lat="48.64029" lon="-2.46927">
        <ele>64.398438</ele>
        <time>2019-10-10T10:09:10.000Z</time>
      </trkpt>
      <trkpt lat="48.64039" lon="-2.46935">
        <ele>66.097656</ele>
        <time>2019-10-10T10:09:14.000Z</time>
      </trkpt>
      <trkpt lat="48.64048" lon="-2.46944">
        <ele>67.097656</ele>
        <time>2019-10-10T10:09:18.000Z</time>
      </trkpt>
      <trkpt lat="48.64073" lon="-2.46973">
        <ele>66.398438</ele>
        <time>2019-10-10T10:09:30.000Z</time>
      </trkpt>
      <trkpt lat="48.64141" lon="-2.47053">
        <ele>58.199219</ele>
        <time>2019-10-10T10:09:50.000Z</time>
      </trkpt>
      <trkpt lat="48.64159" lon="-2.4707">
        <ele>56.597656</ele>
        <time>2019-10-10T10:09:56.000Z</time>
      </trkpt>
      <trkpt lat="48.64168" lon="-2.47066">
        <ele>56.097656</ele>
        <time>2019-10-10T10:09:59.000Z</time>
      </trkpt>
      <trkpt lat="48.64174" lon="-2.47055">
        <ele>55.796875</ele>
        <time>2019-10-10T10:10:02.000Z</time>
      </trkpt>
      <trkpt lat="48.64176" lon="-2.47042">
        <ele>55.5</ele>
        <time>2019-10-10T10:10:05.000Z</time>
      </trkpt>
      <trkpt lat="48.64176" lon="-2.47026">
        <ele>55.199219</ele>
        <time>2019-10-10T10:10:08.000Z</time>
      </trkpt>
      <trkpt lat="48.64179" lon="-2.46956">
        <ele>54.5</ele>
        <time>2019-10-10T10:10:20.000Z</time>
      </trkpt>
      <trkpt lat="48.64178" lon="-2.46938">
        <ele>54.097656</ele>
        <time>2019-10-10T10:10:23.000Z</time>
      </trkpt>
      <trkpt lat="48.64179" lon="-2.469">
        <ele>53.796875</ele>
        <time>2019-10-10T10:10:29.000Z</time>
      </trkpt>
      <trkpt lat="48.6418" lon="-2.4688">
        <ele>53.5</ele>
        <time>2019-10-10T10:10:32.000Z</time>
      </trkpt>
      <trkpt lat="48.64182" lon="-2.46862">
        <ele>53.699219</ele>
        <time>2019-10-10T10:10:35.000Z</time>
      </trkpt>
      <trkpt lat="48.64182" lon="-2.46848">
        <ele>53.597656</ele>
        <time>2019-10-10T10:10:37.000Z</time>
      </trkpt>
      <trkpt lat="48.64184" lon="-2.46752">
        <ele>53.097656</ele>
        <time>2019-10-10T10:10:52.000Z</time>
      </trkpt>
      <trkpt lat="48.64184" lon="-2.46733">
        <ele>53.097656</ele>
        <time>2019-10-10T10:10:55.000Z</time>
      </trkpt>
      <trkpt lat="48.64184" lon="-2.4669">
        <ele>53.5</ele>
        <time>2019-10-10T10:11:01.000Z</time>
      </trkpt>
      <trkpt lat="48.64192" lon="-2.46336">
        <ele>52</ele>
        <time>2019-10-10T10:12:03.000Z</time>
      </trkpt>
      <trkpt lat="48.6419" lon="-2.46321">
        <ele>52.699219</ele>
        <time>2019-10-10T10:12:07.000Z</time>
      </trkpt>
      <trkpt lat="48.64191" lon="-2.46305">
        <ele>52.597656</ele>
        <time>2019-10-10T10:12:28.000Z</time>
      </trkpt>
      <trkpt lat="48.64208" lon="-2.45595">
        <ele>64.199219</ele>
        <time>2019-10-10T10:14:17.000Z</time>
      </trkpt>
      <trkpt lat="48.64201" lon="-2.45605">
        <ele>63.597656</ele>
        <time>2019-10-10T10:15:14.000Z</time>
      </trkpt>
      <trkpt lat="48.64192" lon="-2.45605">
        <ele>62.898438</ele>
        <time>2019-10-10T10:15:17.000Z</time>
      </trkpt>
      <trkpt lat="48.64061" lon="-2.45598">
        <ele>61.199219</ele>
        <time>2019-10-10T10:15:49.000Z</time>
      </trkpt>
      <trkpt lat="48.6401" lon="-2.45594">
        <ele>60</ele>
        <time>2019-10-10T10:16:05.000Z</time>
      </trkpt>
      <trkpt lat="48.63805" lon="-2.45578">
        <ele>64.699219</ele>
        <time>2019-10-10T10:17:02.000Z</time>
      </trkpt>
      <trkpt lat="48.63797" lon="-2.4557">
        <ele>64.296875</ele>
        <time>2019-10-10T10:17:05.000Z</time>
      </trkpt>
      <trkpt lat="48.63794" lon="-2.45552">
        <ele>64.199219</ele>
        <time>2019-10-10T10:17:09.000Z</time>
      </trkpt>
      <trkpt lat="48.63794" lon="-2.45536">
        <ele>64.199219</ele>
        <time>2019-10-10T10:17:12.000Z</time>
      </trkpt>
      <trkpt lat="48.63797" lon="-2.4525">
        <ele>66.199219</ele>
        <time>2019-10-10T10:17:54.000Z</time>
      </trkpt>
      <trkpt lat="48.63798" lon="-2.45236">
        <ele>66.199219</ele>
        <time>2019-10-10T10:17:56.000Z</time>
      </trkpt>
      <trkpt lat="48.63815" lon="-2.44614">
        <ele>65.296875</ele>
        <time>2019-10-10T10:19:39.000Z</time>
      </trkpt>
      <trkpt lat="48.63806" lon="-2.44608">
        <ele>65.199219</ele>
        <time>2019-10-10T10:19:44.000Z</time>
      </trkpt>
      <trkpt lat="48.63795" lon="-2.44608">
        <ele>63.796875</ele>
        <time>2019-10-10T10:19:49.000Z</time>
      </trkpt>
      <trkpt lat="48.63786" lon="-2.44605">
        <ele>62.296875</ele>
        <time>2019-10-10T10:19:54.000Z</time>
      </trkpt>
      <trkpt lat="48.63775" lon="-2.44607">
        <ele>61.796875</ele>
        <time>2019-10-10T10:19:59.000Z</time>
      </trkpt>
      <trkpt lat="48.63765" lon="-2.44605">
        <ele>60.699219</ele>
        <time>2019-10-10T10:20:03.000Z</time>
      </trkpt>
      <trkpt lat="48.63756" lon="-2.44601">
        <ele>58.5</ele>
        <time>2019-10-10T10:20:07.000Z</time>
      </trkpt>
      <trkpt lat="48.63746" lon="-2.446">
        <ele>56.597656</ele>
        <time>2019-10-10T10:20:11.000Z</time>
      </trkpt>
      <trkpt lat="48.63737" lon="-2.44598">
        <ele>54.699219</ele>
        <time>2019-10-10T10:20:15.000Z</time>
      </trkpt>
      <trkpt lat="48.63727" lon="-2.446">
        <ele>53.597656</ele>
        <time>2019-10-10T10:20:20.000Z</time>
      </trkpt>
      <trkpt lat="48.63718" lon="-2.44598">
        <ele>51.898438</ele>
        <time>2019-10-10T10:20:26.000Z</time>
      </trkpt>
      <trkpt lat="48.63707" lon="-2.44596">
        <ele>49.398438</ele>
        <time>2019-10-10T10:20:31.000Z</time>
      </trkpt>
      <trkpt lat="48.63686" lon="-2.4459">
        <ele>46.296875</ele>
        <time>2019-10-10T10:20:38.000Z</time>
      </trkpt>
      <trkpt lat="48.63676" lon="-2.44585">
        <ele>45.898438</ele>
        <time>2019-10-10T10:20:41.000Z</time>
      </trkpt>
      <trkpt lat="48.63666" lon="-2.44579">
        <ele>45.796875</ele>
        <time>2019-10-10T10:20:45.000Z</time>
      </trkpt>
      <trkpt lat="48.63657" lon="-2.44575">
        <ele>46.199219</ele>
        <time>2019-10-10T10:20:48.000Z</time>
      </trkpt>
      <trkpt lat="48.63578" lon="-2.44545">
        <ele>43.597656</ele>
        <time>2019-10-10T10:21:03.000Z</time>
      </trkpt>
      <trkpt lat="48.63568" lon="-2.44545">
        <ele>43.398438</ele>
        <time>2019-10-10T10:21:05.000Z</time>
      </trkpt>
      <trkpt lat="48.63557" lon="-2.44556">
        <ele>42.796875</ele>
        <time>2019-10-10T10:21:08.000Z</time>
      </trkpt>
      <trkpt lat="48.6355" lon="-2.44572">
        <ele>42.597656</ele>
        <time>2019-10-10T10:21:11.000Z</time>
      </trkpt>
      <trkpt lat="48.63545" lon="-2.44591">
        <ele>42.699219</ele>
        <time>2019-10-10T10:21:14.000Z</time>
      </trkpt>
      <trkpt lat="48.63542" lon="-2.44604">
        <ele>42.699219</ele>
        <time>2019-10-10T10:21:16.000Z</time>
      </trkpt>
      <trkpt lat="48.63536" lon="-2.44622">
        <ele>42.5</ele>
        <time>2019-10-10T10:21:19.000Z</time>
      </trkpt>
      <trkpt lat="48.63529" lon="-2.44638">
        <ele>41.597656</ele>
        <time>2019-10-10T10:21:22.000Z</time>
      </trkpt>
      <trkpt lat="48.63518" lon="-2.44648">
        <ele>41.097656</ele>
        <time>2019-10-10T10:21:25.000Z</time>
      </trkpt>
      <trkpt lat="48.63507" lon="-2.44651">
        <ele>40.5</ele>
        <time>2019-10-10T10:21:27.000Z</time>
      </trkpt>
      <trkpt lat="48.63496" lon="-2.44652">
        <ele>39.898438</ele>
        <time>2019-10-10T10:21:29.000Z</time>
      </trkpt>
      <trkpt lat="48.63484" lon="-2.44652">
        <ele>39.398438</ele>
        <time>2019-10-10T10:21:31.000Z</time>
      </trkpt>
      <trkpt lat="48.63433" lon="-2.44649">
        <ele>38.398438</ele>
        <time>2019-10-10T10:21:39.000Z</time>
      </trkpt>
      <trkpt lat="48.63422" lon="-2.44645">
        <ele>38.398438</ele>
        <time>2019-10-10T10:21:41.000Z</time>
      </trkpt>
      <trkpt lat="48.63412" lon="-2.44638">
        <ele>38.699219</ele>
        <time>2019-10-10T10:21:43.000Z</time>
      </trkpt>
      <trkpt lat="48.63404" lon="-2.44628">
        <ele>39.097656</ele>
        <time>2019-10-10T10:21:45.000Z</time>
      </trkpt>
      <trkpt lat="48.63353" lon="-2.44569">
        <ele>41.097656</ele>
        <time>2019-10-10T10:22:02.000Z</time>
      </trkpt>
      <trkpt lat="48.63348" lon="-2.44555">
        <ele>41.5</ele>
        <time>2019-10-10T10:22:06.000Z</time>
      </trkpt>
      <trkpt lat="48.63354" lon="-2.44541">
        <ele>41.898438</ele>
        <time>2019-10-10T10:22:10.000Z</time>
      </trkpt>
      <trkpt lat="48.63364" lon="-2.44511">
        <ele>42.097656</ele>
        <time>2019-10-10T10:22:18.000Z</time>
      </trkpt>
      <trkpt lat="48.63367" lon="-2.44498">
        <ele>41.5</ele>
        <time>2019-10-10T10:22:26.000Z</time>
      </trkpt>
      <trkpt lat="48.63358" lon="-2.4449">
        <ele>41.699219</ele>
        <time>2019-10-10T10:22:41.000Z</time>
      </trkpt>
      <trkpt lat="48.63348" lon="-2.44485">
        <ele>42.296875</ele>
        <time>2019-10-10T10:22:45.000Z</time>
      </trkpt>
      <trkpt lat="48.63337" lon="-2.4448">
        <ele>42.398438</ele>
        <time>2019-10-10T10:22:49.000Z</time>
      </trkpt>
      <trkpt lat="48.63326" lon="-2.44478">
        <ele>42.398438</ele>
        <time>2019-10-10T10:22:53.000Z</time>
      </trkpt>
      <trkpt lat="48.63315" lon="-2.44481">
        <ele>42.597656</ele>
        <time>2019-10-10T10:22:57.000Z</time>
      </trkpt>
      <trkpt lat="48.63304" lon="-2.44479">
        <ele>42.097656</ele>
        <time>2019-10-10T10:23:01.000Z</time>
      </trkpt>
      <trkpt lat="48.63294" lon="-2.4447">
        <ele>42.097656</ele>
        <time>2019-10-10T10:23:05.000Z</time>
      </trkpt>
      <trkpt lat="48.63286" lon="-2.44459">
        <ele>41.796875</ele>
        <time>2019-10-10T10:23:09.000Z</time>
      </trkpt>
      <trkpt lat="48.63276" lon="-2.44463">
        <ele>43</ele>
        <time>2019-10-10T10:23:14.000Z</time>
      </trkpt>
      <trkpt lat="48.63269" lon="-2.44478">
        <ele>43.5</ele>
        <time>2019-10-10T10:23:18.000Z</time>
      </trkpt>
      <trkpt lat="48.63264" lon="-2.44489">
        <ele>44.097656</ele>
        <time>2019-10-10T10:23:21.000Z</time>
      </trkpt>
      <trkpt lat="48.63254" lon="-2.4449">
        <ele>44.796875</ele>
        <time>2019-10-10T10:23:24.000Z</time>
      </trkpt>
      <trkpt lat="48.63245" lon="-2.44484">
        <ele>45.5</ele>
        <time>2019-10-10T10:23:27.000Z</time>
      </trkpt>
      <trkpt lat="48.63236" lon="-2.44477">
        <ele>46.597656</ele>
        <time>2019-10-10T10:23:30.000Z</time>
      </trkpt>
      <trkpt lat="48.63225" lon="-2.4447">
        <ele>47.296875</ele>
        <time>2019-10-10T10:23:34.000Z</time>
      </trkpt>
      <trkpt lat="48.63214" lon="-2.44472">
        <ele>47.199219</ele>
        <time>2019-10-10T10:23:38.000Z</time>
      </trkpt>
      <trkpt lat="48.63205" lon="-2.44477">
        <ele>46.597656</ele>
        <time>2019-10-10T10:23:41.000Z</time>
      </trkpt>
      <trkpt lat="48.63154" lon="-2.44512">
        <ele>45.597656</ele>
        <time>2019-10-10T10:23:54.000Z</time>
      </trkpt>
      <trkpt lat="48.63142" lon="-2.44518">
        <ele>45.796875</ele>
        <time>2019-10-10T10:23:57.000Z</time>
      </trkpt>
      <trkpt lat="48.6313" lon="-2.44518">
        <ele>45.796875</ele>
        <time>2019-10-10T10:24:00.000Z</time>
      </trkpt>
      <trkpt lat="48.63119" lon="-2.44517">
        <ele>46</ele>
        <time>2019-10-10T10:24:03.000Z</time>
      </trkpt>
      <trkpt lat="48.6311" lon="-2.44514">
        <ele>46.5</ele>
        <time>2019-10-10T10:24:06.000Z</time>
      </trkpt>
      <trkpt lat="48.63106" lon="-2.44499">
        <ele>46.898438</ele>
        <time>2019-10-10T10:24:11.000Z</time>
      </trkpt>
      <trkpt lat="48.63108" lon="-2.44481">
        <ele>47.296875</ele>
        <time>2019-10-10T10:24:15.000Z</time>
      </trkpt>
      <trkpt lat="48.63131" lon="-2.44274">
        <ele>51.898438</ele>
        <time>2019-10-10T10:24:57.000Z</time>
      </trkpt>
      <trkpt lat="48.63164" lon="-2.44008">
        <ele>55.296875</ele>
        <time>2019-10-10T10:25:46.000Z</time>
      </trkpt>
      <trkpt lat="48.63182" lon="-2.43859">
        <ele>55.597656</ele>
        <time>2019-10-10T10:26:13.000Z</time>
      </trkpt>
      <trkpt lat="48.63207" lon="-2.43656">
        <ele>54.5</ele>
        <time>2019-10-10T10:26:45.000Z</time>
      </trkpt>
      <trkpt lat="48.63208" lon="-2.43641">
        <ele>54.097656</ele>
        <time>2019-10-10T10:26:47.000Z</time>
      </trkpt>
      <trkpt lat="48.63221" lon="-2.43516">
        <ele>49.296875</ele>
        <time>2019-10-10T10:27:03.000Z</time>
      </trkpt>
      <trkpt lat="48.63223" lon="-2.43499">
        <ele>49</ele>
        <time>2019-10-10T10:27:05.000Z</time>
      </trkpt>
      <trkpt lat="48.63227" lon="-2.43464">
        <ele>47.296875</ele>
        <time>2019-10-10T10:27:10.000Z</time>
      </trkpt>
      <trkpt lat="48.6323" lon="-2.43448">
        <ele>46.796875</ele>
        <time>2019-10-10T10:27:13.000Z</time>
      </trkpt>
      <trkpt lat="48.63235" lon="-2.43435">
        <ele>47.199219</ele>
        <time>2019-10-10T10:27:16.000Z</time>
      </trkpt>
      <trkpt lat="48.63235" lon="-2.43417">
        <ele>47.296875</ele>
        <time>2019-10-10T10:27:20.000Z</time>
      </trkpt>
      <trkpt lat="48.63237" lon="-2.43385">
        <ele>46.898438</ele>
        <time>2019-10-10T10:27:26.000Z</time>
      </trkpt>
      <trkpt lat="48.6324" lon="-2.43367">
        <ele>46.898438</ele>
        <time>2019-10-10T10:27:29.000Z</time>
      </trkpt>
      <trkpt lat="48.6324" lon="-2.43351">
        <ele>46.699219</ele>
        <time>2019-10-10T10:27:33.000Z</time>
      </trkpt>
      <trkpt lat="48.63243" lon="-2.43334">
        <ele>46.398438</ele>
        <time>2019-10-10T10:27:37.000Z</time>
      </trkpt>
      <trkpt lat="48.63247" lon="-2.43319">
        <ele>45.597656</ele>
        <time>2019-10-10T10:27:40.000Z</time>
      </trkpt>
      <trkpt lat="48.63252" lon="-2.43302">
        <ele>45</ele>
        <time>2019-10-10T10:27:43.000Z</time>
      </trkpt>
      <trkpt lat="48.63257" lon="-2.43288">
        <ele>44.699219</ele>
        <time>2019-10-10T10:27:46.000Z</time>
      </trkpt>
      <trkpt lat="48.63263" lon="-2.43274">
        <ele>44.296875</ele>
        <time>2019-10-10T10:27:49.000Z</time>
      </trkpt>
      <trkpt lat="48.63272" lon="-2.43259">
        <ele>43.898438</ele>
        <time>2019-10-10T10:27:52.000Z</time>
      </trkpt>
      <trkpt lat="48.63324" lon="-2.4317">
        <ele>40.199219</ele>
        <time>2019-10-10T10:28:06.000Z</time>
      </trkpt>
      <trkpt lat="48.63331" lon="-2.43154">
        <ele>39.597656</ele>
        <time>2019-10-10T10:28:08.000Z</time>
      </trkpt>
      <trkpt lat="48.63337" lon="-2.43137">
        <ele>38.898438</ele>
        <time>2019-10-10T10:28:10.000Z</time>
      </trkpt>
      <trkpt lat="48.63342" lon="-2.43119">
        <ele>38.296875</ele>
        <time>2019-10-10T10:28:12.000Z</time>
      </trkpt>
      <trkpt lat="48.63345" lon="-2.431">
        <ele>37.796875</ele>
        <time>2019-10-10T10:28:14.000Z</time>
      </trkpt>
      <trkpt lat="48.63347" lon="-2.43083">
        <ele>37.199219</ele>
        <time>2019-10-10T10:28:16.000Z</time>
      </trkpt>
      <trkpt lat="48.63348" lon="-2.43067">
        <ele>36.5</ele>
        <time>2019-10-10T10:28:18.000Z</time>
      </trkpt>
      <trkpt lat="48.63347" lon="-2.43052">
        <ele>36</ele>
        <time>2019-10-10T10:28:20.000Z</time>
      </trkpt>
      <trkpt lat="48.63345" lon="-2.43035">
        <ele>36.097656</ele>
        <time>2019-10-10T10:28:23.000Z</time>
      </trkpt>
      <trkpt lat="48.63342" lon="-2.43019">
        <ele>35</ele>
        <time>2019-10-10T10:28:26.000Z</time>
      </trkpt>
      <trkpt lat="48.63341" lon="-2.43003">
        <ele>34.199219</ele>
        <time>2019-10-10T10:28:29.000Z</time>
      </trkpt>
      <trkpt lat="48.63338" lon="-2.42964">
        <ele>33.699219</ele>
        <time>2019-10-10T10:28:35.000Z</time>
      </trkpt>
      <trkpt lat="48.63331" lon="-2.42896">
        <ele>31.898438</ele>
        <time>2019-10-10T10:28:43.000Z</time>
      </trkpt>
      <trkpt lat="48.63331" lon="-2.42878">
        <ele>31</ele>
        <time>2019-10-10T10:28:45.000Z</time>
      </trkpt>
      <trkpt lat="48.63334" lon="-2.42818">
        <ele>30.296875</ele>
        <time>2019-10-10T10:28:51.000Z</time>
      </trkpt>
      <trkpt lat="48.63338" lon="-2.42779">
        <ele>30.296875</ele>
        <time>2019-10-10T10:28:55.000Z</time>
      </trkpt>
      <trkpt lat="48.6334" lon="-2.42762">
        <ele>29.796875</ele>
        <time>2019-10-10T10:28:57.000Z</time>
      </trkpt>
      <trkpt lat="48.63341" lon="-2.42743">
        <ele>29.5</ele>
        <time>2019-10-10T10:28:59.000Z</time>
      </trkpt>
      <trkpt lat="48.6334" lon="-2.42725">
        <ele>29.5</ele>
        <time>2019-10-10T10:29:01.000Z</time>
      </trkpt>
      <trkpt lat="48.63338" lon="-2.42706">
        <ele>29.296875</ele>
        <time>2019-10-10T10:29:03.000Z</time>
      </trkpt>
      <trkpt lat="48.63334" lon="-2.42688">
        <ele>29.097656</ele>
        <time>2019-10-10T10:29:05.000Z</time>
      </trkpt>
      <trkpt lat="48.63329" lon="-2.42669">
        <ele>29.097656</ele>
        <time>2019-10-10T10:29:07.000Z</time>
      </trkpt>
      <trkpt lat="48.63323" lon="-2.42651">
        <ele>29.097656</ele>
        <time>2019-10-10T10:29:09.000Z</time>
      </trkpt>
      <trkpt lat="48.63316" lon="-2.42633">
        <ele>29.097656</ele>
        <time>2019-10-10T10:29:11.000Z</time>
      </trkpt>
      <trkpt lat="48.63309" lon="-2.42617">
        <ele>28.699219</ele>
        <time>2019-10-10T10:29:13.000Z</time>
      </trkpt>
      <trkpt lat="48.63288" lon="-2.42575">
        <ele>27.5</ele>
        <time>2019-10-10T10:29:19.000Z</time>
      </trkpt>
      <trkpt lat="48.63282" lon="-2.42561">
        <ele>27.398438</ele>
        <time>2019-10-10T10:29:21.000Z</time>
      </trkpt>
      <trkpt lat="48.63276" lon="-2.42547">
        <ele>27.398438</ele>
        <time>2019-10-10T10:29:23.000Z</time>
      </trkpt>
      <trkpt lat="48.63271" lon="-2.42531">
        <ele>27.5</ele>
        <time>2019-10-10T10:29:25.000Z</time>
      </trkpt>
      <trkpt lat="48.63268" lon="-2.42514">
        <ele>27</ele>
        <time>2019-10-10T10:29:27.000Z</time>
      </trkpt>
      <trkpt lat="48.63266" lon="-2.42497">
        <ele>26</ele>
        <time>2019-10-10T10:29:29.000Z</time>
      </trkpt>
      <trkpt lat="48.63264" lon="-2.4248">
        <ele>25.296875</ele>
        <time>2019-10-10T10:29:31.000Z</time>
      </trkpt>
      <trkpt lat="48.63264" lon="-2.42462">
        <ele>24</ele>
        <time>2019-10-10T10:29:33.000Z</time>
      </trkpt>
      <trkpt lat="48.63264" lon="-2.42445">
        <ele>23.097656</ele>
        <time>2019-10-10T10:29:35.000Z</time>
      </trkpt>
      <trkpt lat="48.63265" lon="-2.42429">
        <ele>23.5</ele>
        <time>2019-10-10T10:29:37.000Z</time>
      </trkpt>
      <trkpt lat="48.63267" lon="-2.42415">
        <ele>23.199219</ele>
        <time>2019-10-10T10:29:39.000Z</time>
      </trkpt>
      <trkpt lat="48.63273" lon="-2.424">
        <ele>23.398438</ele>
        <time>2019-10-10T10:29:41.000Z</time>
      </trkpt>
      <trkpt lat="48.6328" lon="-2.42385">
        <ele>23.699219</ele>
        <time>2019-10-10T10:29:43.000Z</time>
      </trkpt>
      <trkpt lat="48.6335" lon="-2.42254">
        <ele>20.097656</ele>
        <time>2019-10-10T10:29:59.000Z</time>
      </trkpt>
      <trkpt lat="48.63356" lon="-2.42237">
        <ele>19.5</ele>
        <time>2019-10-10T10:30:01.000Z</time>
      </trkpt>
      <trkpt lat="48.63361" lon="-2.4222">
        <ele>18.296875</ele>
        <time>2019-10-10T10:30:03.000Z</time>
      </trkpt>
      <trkpt lat="48.63365" lon="-2.42204">
        <ele>17</ele>
        <time>2019-10-10T10:30:05.000Z</time>
      </trkpt>
      <trkpt lat="48.63368" lon="-2.42186">
        <ele>15.5</ele>
        <time>2019-10-10T10:30:07.000Z</time>
      </trkpt>
      <trkpt lat="48.63371" lon="-2.4217">
        <ele>14.898438</ele>
        <time>2019-10-10T10:30:09.000Z</time>
      </trkpt>
      <trkpt lat="48.63372" lon="-2.42152">
        <ele>13.796875</ele>
        <time>2019-10-10T10:30:11.000Z</time>
      </trkpt>
      <trkpt lat="48.63371" lon="-2.42136">
        <ele>12.5</ele>
        <time>2019-10-10T10:30:13.000Z</time>
      </trkpt>
      <trkpt lat="48.63369" lon="-2.42117">
        <ele>12.296875</ele>
        <time>2019-10-10T10:30:16.000Z</time>
      </trkpt>
      <trkpt lat="48.63364" lon="-2.42101">
        <ele>12.597656</ele>
        <time>2019-10-10T10:30:19.000Z</time>
      </trkpt>
      <trkpt lat="48.63239" lon="-2.41676">
        <ele>6</ele>
        <time>2019-10-10T10:31:25.000Z</time>
      </trkpt>
      <trkpt lat="48.63226" lon="-2.41634">
        <ele>5.5</ele>
        <time>2019-10-10T10:31:37.000Z</time>
      </trkpt>
      <trkpt lat="48.63223" lon="-2.41617">
        <ele>5.199219</ele>
        <time>2019-10-10T10:31:41.000Z</time>
      </trkpt>
      <trkpt lat="48.63209" lon="-2.41537">
        <ele>4.699219</ele>
        <time>2019-10-10T10:31:53.000Z</time>
      </trkpt>
      <trkpt lat="48.63207" lon="-2.41522">
        <ele>4.597656</ele>
        <time>2019-10-10T10:31:55.000Z</time>
      </trkpt>
      <trkpt lat="48.63192" lon="-2.4138">
        <ele>6.796875</ele>
        <time>2019-10-10T10:32:14.000Z</time>
      </trkpt>
      <trkpt lat="48.63191" lon="-2.41361">
        <ele>7.199219</ele>
        <time>2019-10-10T10:32:17.000Z</time>
      </trkpt>
      <trkpt lat="48.63192" lon="-2.41342">
        <ele>7.097656</ele>
        <time>2019-10-10T10:32:20.000Z</time>
      </trkpt>
      <trkpt lat="48.63194" lon="-2.41323">
        <ele>7.398438</ele>
        <time>2019-10-10T10:32:23.000Z</time>
      </trkpt>
      <trkpt lat="48.63196" lon="-2.41309">
        <ele>7.597656</ele>
        <time>2019-10-10T10:32:25.000Z</time>
      </trkpt>
      <trkpt lat="48.63199" lon="-2.41295">
        <ele>7.796875</ele>
        <time>2019-10-10T10:32:27.000Z</time>
      </trkpt>
      <trkpt lat="48.63202" lon="-2.41282">
        <ele>8</ele>
        <time>2019-10-10T10:32:29.000Z</time>
      </trkpt>
      <trkpt lat="48.63206" lon="-2.41269">
        <ele>8</ele>
        <time>2019-10-10T10:32:31.000Z</time>
      </trkpt>
      <trkpt lat="48.6321" lon="-2.41256">
        <ele>8</ele>
        <time>2019-10-10T10:32:33.000Z</time>
      </trkpt>
      <trkpt lat="48.63215" lon="-2.41244">
        <ele>8</ele>
        <time>2019-10-10T10:32:35.000Z</time>
      </trkpt>
      <trkpt lat="48.6322" lon="-2.41232">
        <ele>8</ele>
        <time>2019-10-10T10:32:37.000Z</time>
      </trkpt>
      <trkpt lat="48.63226" lon="-2.41221">
        <ele>8</ele>
        <time>2019-10-10T10:32:39.000Z</time>
      </trkpt>
      <trkpt lat="48.63233" lon="-2.4121">
        <ele>7.699219</ele>
        <time>2019-10-10T10:32:41.000Z</time>
      </trkpt>
      <trkpt lat="48.63241" lon="-2.412">
        <ele>7.699219</ele>
        <time>2019-10-10T10:32:43.000Z</time>
      </trkpt>
      <trkpt lat="48.63249" lon="-2.41191">
        <ele>8.097656</ele>
        <time>2019-10-10T10:32:45.000Z</time>
      </trkpt>
      <trkpt lat="48.63285" lon="-2.41155">
        <ele>8.398438</ele>
        <time>2019-10-10T10:32:55.000Z</time>
      </trkpt>
      <trkpt lat="48.63294" lon="-2.41159">
        <ele>6.898438</ele>
        <time>2019-10-10T10:33:00.000Z</time>
      </trkpt>
      <trkpt lat="48.63305" lon="-2.41164">
        <ele>5.597656</ele>
        <time>2019-10-10T10:33:04.000Z</time>
      </trkpt>
      <trkpt lat="48.63316" lon="-2.41164">
        <ele>5</ele>
        <time>2019-10-10T10:33:07.000Z</time>
      </trkpt>
      <trkpt lat="48.63328" lon="-2.41161">
        <ele>4.796875</ele>
        <time>2019-10-10T10:33:10.000Z</time>
      </trkpt>
      <trkpt lat="48.6334" lon="-2.41155">
        <ele>4.097656</ele>
        <time>2019-10-10T10:33:13.000Z</time>
      </trkpt>
      <trkpt lat="48.63362" lon="-2.41145">
        <ele>3.699219</ele>
        <time>2019-10-10T10:33:18.000Z</time>
      </trkpt>
      <trkpt lat="48.63371" lon="-2.41143">
        <ele>3.097656</ele>
        <time>2019-10-10T10:33:20.000Z</time>
      </trkpt>
      <trkpt lat="48.63381" lon="-2.41145">
        <ele>2.199219</ele>
        <time>2019-10-10T10:33:22.000Z</time>
      </trkpt>
      <trkpt lat="48.6339" lon="-2.41147">
        <ele>2.398438</ele>
        <time>2019-10-10T10:33:24.000Z</time>
      </trkpt>
      <trkpt lat="48.63401" lon="-2.41138">
        <ele>2.699219</ele>
        <time>2019-10-10T10:33:27.000Z</time>
      </trkpt>
      <trkpt lat="48.63411" lon="-2.41126">
        <ele>3</ele>
        <time>2019-10-10T10:33:30.000Z</time>
      </trkpt>
      <trkpt lat="48.6344" lon="-2.41091">
        <ele>4.796875</ele>
        <time>2019-10-10T10:33:39.000Z</time>
      </trkpt>
      <trkpt lat="48.63445" lon="-2.41079">
        <ele>5.097656</ele>
        <time>2019-10-10T10:33:42.000Z</time>
      </trkpt>
      <trkpt lat="48.63443" lon="-2.41066">
        <ele>5.199219</ele>
        <time>2019-10-10T10:33:45.000Z</time>
      </trkpt>
      <trkpt lat="48.63437" lon="-2.41037">
        <ele>6.898438</ele>
        <time>2019-10-10T10:33:51.000Z</time>
      </trkpt>
      <trkpt lat="48.63441" lon="-2.41023">
        <ele>6.699219</ele>
        <time>2019-10-10T10:33:55.000Z</time>
      </trkpt>
      <trkpt lat="48.6345" lon="-2.41017">
        <ele>5.699219</ele>
        <time>2019-10-10T10:33:59.000Z</time>
      </trkpt>
      <trkpt lat="48.6346" lon="-2.41023">
        <ele>4.5</ele>
        <time>2019-10-10T10:34:03.000Z</time>
      </trkpt>
      <trkpt lat="48.6347" lon="-2.41029">
        <ele>4.5</ele>
        <time>2019-10-10T10:34:07.000Z</time>
      </trkpt>
      <trkpt lat="48.6348" lon="-2.41019">
        <ele>4.296875</ele>
        <time>2019-10-10T10:34:11.000Z</time>
      </trkpt>
      <trkpt lat="48.63487" lon="-2.41006">
        <ele>4.5</ele>
        <time>2019-10-10T10:34:14.000Z</time>
      </trkpt>
      <trkpt lat="48.63527" lon="-2.40939">
        <ele>5</ele>
        <time>2019-10-10T10:34:28.000Z</time>
      </trkpt>
      <trkpt lat="48.6355" lon="-2.40905">
        <ele>5.398438</ele>
        <time>2019-10-10T10:34:35.000Z</time>
      </trkpt>
      <trkpt lat="48.63559" lon="-2.40893">
        <ele>5.296875</ele>
        <time>2019-10-10T10:34:38.000Z</time>
      </trkpt>
      <trkpt lat="48.63569" lon="-2.40882">
        <ele>5.5</ele>
        <time>2019-10-10T10:34:41.000Z</time>
      </trkpt>
      <trkpt lat="48.6358" lon="-2.40873">
        <ele>5.597656</ele>
        <time>2019-10-10T10:34:44.000Z</time>
      </trkpt>
      <trkpt lat="48.6359" lon="-2.40869">
        <ele>5.5</ele>
        <time>2019-10-10T10:34:47.000Z</time>
      </trkpt>
      <trkpt lat="48.63601" lon="-2.4087">
        <ele>5.398438</ele>
        <time>2019-10-10T10:34:51.000Z</time>
      </trkpt>
      <trkpt lat="48.63611" lon="-2.40877">
        <ele>5.398438</ele>
        <time>2019-10-10T10:34:54.000Z</time>
      </trkpt>
      <trkpt lat="48.63622" lon="-2.40886">
        <ele>5.199219</ele>
        <time>2019-10-10T10:34:57.000Z</time>
      </trkpt>
      <trkpt lat="48.63656" lon="-2.40914">
        <ele>5.296875</ele>
        <time>2019-10-10T10:35:06.000Z</time>
      </trkpt>
      <trkpt lat="48.63665" lon="-2.40919">
        <ele>5.398438</ele>
        <time>2019-10-10T10:35:09.000Z</time>
      </trkpt>
      <trkpt lat="48.63674" lon="-2.40927">
        <ele>5.097656</ele>
        <time>2019-10-10T10:35:12.000Z</time>
      </trkpt>
      <trkpt lat="48.63683" lon="-2.40938">
        <ele>5.296875</ele>
        <time>2019-10-10T10:35:15.000Z</time>
      </trkpt>
      <trkpt lat="48.63695" lon="-2.40946">
        <ele>5.5</ele>
        <time>2019-10-10T10:35:18.000Z</time>
      </trkpt>
      <trkpt lat="48.63705" lon="-2.40952">
        <ele>5.398438</ele>
        <time>2019-10-10T10:35:21.000Z</time>
      </trkpt>
      <trkpt lat="48.63714" lon="-2.40953">
        <ele>5.097656</ele>
        <time>2019-10-10T10:35:24.000Z</time>
      </trkpt>
      <trkpt lat="48.63725" lon="-2.40956">
        <ele>4.5</ele>
        <time>2019-10-10T10:35:28.000Z</time>
      </trkpt>
      <trkpt lat="48.63734" lon="-2.40961">
        <ele>4.199219</ele>
        <time>2019-10-10T10:35:32.000Z</time>
      </trkpt>
      <trkpt lat="48.63745" lon="-2.40966">
        <ele>4.398438</ele>
        <time>2019-10-10T10:35:36.000Z</time>
      </trkpt>
      <trkpt lat="48.63755" lon="-2.40959">
        <ele>4.597656</ele>
        <time>2019-10-10T10:35:40.000Z</time>
      </trkpt>
      <trkpt lat="48.63762" lon="-2.4095">
        <ele>4.898438</ele>
        <time>2019-10-10T10:35:43.000Z</time>
      </trkpt>
      <trkpt lat="48.63768" lon="-2.40939">
        <ele>5.398438</ele>
        <time>2019-10-10T10:35:46.000Z</time>
      </trkpt>
      <trkpt lat="48.63775" lon="-2.40931">
        <ele>6</ele>
        <time>2019-10-10T10:35:49.000Z</time>
      </trkpt>
      <trkpt lat="48.6379" lon="-2.40912">
        <ele>5.699219</ele>
        <time>2019-10-10T10:35:55.000Z</time>
      </trkpt>
      <trkpt lat="48.63825" lon="-2.40872">
        <ele>5.199219</ele>
        <time>2019-10-10T10:36:07.000Z</time>
      </trkpt>
      <trkpt lat="48.63835" lon="-2.40862">
        <ele>5.398438</ele>
        <time>2019-10-10T10:36:10.000Z</time>
      </trkpt>
      <trkpt lat="48.63885" lon="-2.40809">
        <ele>6.699219</ele>
        <time>2019-10-10T10:36:25.000Z</time>
      </trkpt>
      <trkpt lat="48.63901" lon="-2.4079">
        <ele>10.253906</ele>
        <time>2019-10-10T10:36:32.000Z</time>
      </trkpt>
      <trkpt lat="48.63909" lon="-2.40783">
        <ele>22.796875</ele>
        <time>2019-10-10T10:36:57.000Z</time>
      </trkpt>
      <trkpt lat="48.63919" lon="-2.40777">
        <ele>22.796875</ele>
        <time>2019-10-10T10:37:48.000Z</time>
      </trkpt>
      <trkpt lat="48.63923" lon="-2.40764">
        <ele>22.296875</ele>
        <time>2019-10-10T10:37:54.000Z</time>
      </trkpt>
      <trkpt lat="48.63928" lon="-2.40752">
        <ele>21.699219</ele>
        <time>2019-10-10T10:38:00.000Z</time>
      </trkpt>
      <trkpt lat="48.6393" lon="-2.40737">
        <ele>21.097656</ele>
        <time>2019-10-10T10:38:03.000Z</time>
      </trkpt>
      <trkpt lat="48.63932" lon="-2.40721">
        <ele>20.5</ele>
        <time>2019-10-10T10:38:06.000Z</time>
      </trkpt>
      <trkpt lat="48.63932" lon="-2.40686">
        <ele>19.097656</ele>
        <time>2019-10-10T10:38:12.000Z</time>
      </trkpt>
      <trkpt lat="48.63938" lon="-2.40484">
        <ele>15.699219</ele>
        <time>2019-10-10T10:38:45.000Z</time>
      </trkpt>
      <trkpt lat="48.63936" lon="-2.40471">
        <ele>15.5</ele>
        <time>2019-10-10T10:38:53.000Z</time>
      </trkpt>
      <trkpt lat="48.63931" lon="-2.40457">
        <ele>15.398438</ele>
        <time>2019-10-10T10:39:01.000Z</time>
      </trkpt>
      <trkpt lat="48.63924" lon="-2.40443">
        <ele>15.398438</ele>
        <time>2019-10-10T10:39:05.000Z</time>
      </trkpt>
      <trkpt lat="48.63894" lon="-2.40381">
        <ele>15.796875</ele>
        <time>2019-10-10T10:39:20.000Z</time>
      </trkpt>
      <trkpt lat="48.63886" lon="-2.40369">
        <ele>15.796875</ele>
        <time>2019-10-10T10:39:23.000Z</time>
      </trkpt>
      <trkpt lat="48.63832" lon="-2.40262">
        <ele>17</ele>
        <time>2019-10-10T10:39:47.000Z</time>
      </trkpt>
      <trkpt lat="48.63821" lon="-2.40236">
        <ele>17.398438</ele>
        <time>2019-10-10T10:39:54.000Z</time>
      </trkpt>
      <trkpt lat="48.63822" lon="-2.40221">
        <ele>16.699219</ele>
        <time>2019-10-10T10:39:59.000Z</time>
      </trkpt>
      <trkpt lat="48.63829" lon="-2.40209">
        <ele>15.5</ele>
        <time>2019-10-10T10:40:03.000Z</time>
      </trkpt>
      <trkpt lat="48.63839" lon="-2.40201">
        <ele>15.398438</ele>
        <time>2019-10-10T10:40:07.000Z</time>
      </trkpt>
      <trkpt lat="48.63848" lon="-2.40196">
        <ele>15.199219</ele>
        <time>2019-10-10T10:40:10.000Z</time>
      </trkpt>
      <trkpt lat="48.6387" lon="-2.40186">
        <ele>14.097656</ele>
        <time>2019-10-10T10:40:16.000Z</time>
      </trkpt>
      <trkpt lat="48.63882" lon="-2.40178">
        <ele>14</ele>
        <time>2019-10-10T10:40:19.000Z</time>
      </trkpt>
      <trkpt lat="48.63893" lon="-2.40167">
        <ele>14.097656</ele>
        <time>2019-10-10T10:40:22.000Z</time>
      </trkpt>
      <trkpt lat="48.63901" lon="-2.40154">
        <ele>14.5</ele>
        <time>2019-10-10T10:40:25.000Z</time>
      </trkpt>
      <trkpt lat="48.63907" lon="-2.40141">
        <ele>14.898438</ele>
        <time>2019-10-10T10:40:28.000Z</time>
      </trkpt>
      <trkpt lat="48.63918" lon="-2.40111">
        <ele>15.097656</ele>
        <time>2019-10-10T10:40:34.000Z</time>
      </trkpt>
      <trkpt lat="48.6394" lon="-2.4005">
        <ele>17.398438</ele>
        <time>2019-10-10T10:40:46.000Z</time>
      </trkpt>
      <trkpt lat="48.63946" lon="-2.40038">
        <ele>18</ele>
        <time>2019-10-10T10:40:49.000Z</time>
      </trkpt>
      <trkpt lat="48.63954" lon="-2.40027">
        <ele>19</ele>
        <time>2019-10-10T10:40:52.000Z</time>
      </trkpt>
      <trkpt lat="48.63962" lon="-2.40019">
        <ele>20.097656</ele>
        <time>2019-10-10T10:40:55.000Z</time>
      </trkpt>
      <trkpt lat="48.63971" lon="-2.40011">
        <ele>21.199219</ele>
        <time>2019-10-10T10:40:58.000Z</time>
      </trkpt>
      <trkpt lat="48.63981" lon="-2.40006">
        <ele>22.296875</ele>
        <time>2019-10-10T10:41:01.000Z</time>
      </trkpt>
      <trkpt lat="48.64011" lon="-2.39992">
        <ele>22.796875</ele>
        <time>2019-10-10T10:41:10.000Z</time>
      </trkpt>
      <trkpt lat="48.64019" lon="-2.3998">
        <ele>23.398438</ele>
        <time>2019-10-10T10:41:13.000Z</time>
      </trkpt>
      <trkpt lat="48.64017" lon="-2.39963">
        <ele>24.398438</ele>
        <time>2019-10-10T10:41:16.000Z</time>
      </trkpt>
      <trkpt lat="48.64008" lon="-2.39956">
        <ele>25.398438</ele>
        <time>2019-10-10T10:41:19.000Z</time>
      </trkpt>
      <trkpt lat="48.64" lon="-2.3995">
        <ele>26.5</ele>
        <time>2019-10-10T10:41:22.000Z</time>
      </trkpt>
      <trkpt lat="48.63973" lon="-2.39931">
        <ele>30.097656</ele>
        <time>2019-10-10T10:41:31.000Z</time>
      </trkpt>
      <trkpt lat="48.63964" lon="-2.39927">
        <ele>30.699219</ele>
        <time>2019-10-10T10:41:34.000Z</time>
      </trkpt>
      <trkpt lat="48.63916" lon="-2.39901">
        <ele>34</ele>
        <time>2019-10-10T10:41:51.000Z</time>
      </trkpt>
      <trkpt lat="48.63906" lon="-2.39894">
        <ele>34.699219</ele>
        <time>2019-10-10T10:41:55.000Z</time>
      </trkpt>
      <trkpt lat="48.63896" lon="-2.39886">
        <ele>35.398438</ele>
        <time>2019-10-10T10:41:59.000Z</time>
      </trkpt>
      <trkpt lat="48.6389" lon="-2.3987">
        <ele>35.5</ele>
        <time>2019-10-10T10:42:03.000Z</time>
      </trkpt>
      <trkpt lat="48.63889" lon="-2.39854">
        <ele>35.296875</ele>
        <time>2019-10-10T10:42:06.000Z</time>
      </trkpt>
      <trkpt lat="48.63888" lon="-2.39839">
        <ele>35.296875</ele>
        <time>2019-10-10T10:42:11.000Z</time>
      </trkpt>
      <trkpt lat="48.63886" lon="-2.39823">
        <ele>35.597656</ele>
        <time>2019-10-10T10:42:17.000Z</time>
      </trkpt>
      <trkpt lat="48.63897" lon="-2.39816">
        <ele>35.398438</ele>
        <time>2019-10-10T10:42:31.000Z</time>
      </trkpt>
      <trkpt lat="48.63907" lon="-2.39805">
        <ele>35.199219</ele>
        <time>2019-10-10T10:42:35.000Z</time>
      </trkpt>
      <trkpt lat="48.63916" lon="-2.39796">
        <ele>34.398438</ele>
        <time>2019-10-10T10:42:38.000Z</time>
      </trkpt>
      <trkpt lat="48.63928" lon="-2.39787">
        <ele>33.5</ele>
        <time>2019-10-10T10:42:41.000Z</time>
      </trkpt>
      <trkpt lat="48.63937" lon="-2.39783">
        <ele>32.796875</ele>
        <time>2019-10-10T10:42:43.000Z</time>
      </trkpt>
      <trkpt lat="48.63946" lon="-2.39784">
        <ele>32.398438</ele>
        <time>2019-10-10T10:42:45.000Z</time>
      </trkpt>
      <trkpt lat="48.63956" lon="-2.39789">
        <ele>31.898438</ele>
        <time>2019-10-10T10:42:47.000Z</time>
      </trkpt>
      <trkpt lat="48.63988" lon="-2.39808">
        <ele>30.898438</ele>
        <time>2019-10-10T10:42:53.000Z</time>
      </trkpt>
      <trkpt lat="48.63999" lon="-2.39813">
        <ele>30.296875</ele>
        <time>2019-10-10T10:42:55.000Z</time>
      </trkpt>
      <trkpt lat="48.64011" lon="-2.39816">
        <ele>29.796875</ele>
        <time>2019-10-10T10:42:57.000Z</time>
      </trkpt>
      <trkpt lat="48.64049" lon="-2.39824">
        <ele>28</ele>
        <time>2019-10-10T10:43:03.000Z</time>
      </trkpt>
      <trkpt lat="48.64063" lon="-2.39823">
        <ele>27.199219</ele>
        <time>2019-10-10T10:43:05.000Z</time>
      </trkpt>
      <trkpt lat="48.64078" lon="-2.3982">
        <ele>26.296875</ele>
        <time>2019-10-10T10:43:07.000Z</time>
      </trkpt>
      <trkpt lat="48.6409" lon="-2.39813">
        <ele>25.699219</ele>
        <time>2019-10-10T10:43:09.000Z</time>
      </trkpt>
      <trkpt lat="48.641" lon="-2.39802">
        <ele>24.898438</ele>
        <time>2019-10-10T10:43:11.000Z</time>
      </trkpt>
      <trkpt lat="48.64106" lon="-2.39787">
        <ele>24.5</ele>
        <time>2019-10-10T10:43:13.000Z</time>
      </trkpt>
      <trkpt lat="48.64108" lon="-2.39773">
        <ele>24.097656</ele>
        <time>2019-10-10T10:43:15.000Z</time>
      </trkpt>
      <trkpt lat="48.64109" lon="-2.39757">
        <ele>23.796875</ele>
        <time>2019-10-10T10:43:18.000Z</time>
      </trkpt>
      <trkpt lat="48.64112" lon="-2.39741">
        <ele>24.5</ele>
        <time>2019-10-10T10:43:22.000Z</time>
      </trkpt>
      <trkpt lat="48.64113" lon="-2.39726">
        <ele>27.699219</ele>
        <time>2019-10-10T10:43:28.000Z</time>
      </trkpt>
      <trkpt lat="48.64112" lon="-2.39712">
        <ele>29.296875</ele>
        <time>2019-10-10T10:43:46.000Z</time>
      </trkpt>
      <trkpt lat="48.64109" lon="-2.39695">
        <ele>30.898438</ele>
        <time>2019-10-10T10:43:50.000Z</time>
      </trkpt>
      <trkpt lat="48.64051" lon="-2.39418">
        <ele>42.898438</ele>
        <time>2019-10-10T10:44:48.000Z</time>
      </trkpt>
      <trkpt lat="48.64049" lon="-2.39399">
        <ele>42.398438</ele>
        <time>2019-10-10T10:44:51.000Z</time>
      </trkpt>
      <trkpt lat="48.64048" lon="-2.39378">
        <ele>41.597656</ele>
        <time>2019-10-10T10:44:54.000Z</time>
      </trkpt>
      <trkpt lat="48.6405" lon="-2.39361">
        <ele>40.597656</ele>
        <time>2019-10-10T10:44:56.000Z</time>
      </trkpt>
      <trkpt lat="48.64054" lon="-2.39343">
        <ele>39.398438</ele>
        <time>2019-10-10T10:44:58.000Z</time>
      </trkpt>
      <trkpt lat="48.6406" lon="-2.39323">
        <ele>38.296875</ele>
        <time>2019-10-10T10:45:00.000Z</time>
      </trkpt>
      <trkpt lat="48.64074" lon="-2.39282">
        <ele>38.898438</ele>
        <time>2019-10-10T10:45:04.000Z</time>
      </trkpt>
      <trkpt lat="48.64086" lon="-2.39252">
        <ele>40.898438</ele>
        <time>2019-10-10T10:45:08.000Z</time>
      </trkpt>
      <trkpt lat="48.64123" lon="-2.39172">
        <ele>45.296875</ele>
        <time>2019-10-10T10:45:26.000Z</time>
      </trkpt>
      <trkpt lat="48.64221" lon="-2.38993">
        <ele>49.398438</ele>
        <time>2019-10-10T10:46:03.000Z</time>
      </trkpt>
      <trkpt lat="48.64228" lon="-2.38983">
        <ele>49.597656</ele>
        <time>2019-10-10T10:46:05.000Z</time>
      </trkpt>
      <trkpt lat="48.64234" lon="-2.38972">
        <ele>49.699219</ele>
        <time>2019-10-10T10:46:07.000Z</time>
      </trkpt>
      <trkpt lat="48.6424" lon="-2.3896">
        <ele>49.796875</ele>
        <time>2019-10-10T10:46:09.000Z</time>
      </trkpt>
      <trkpt lat="48.64272" lon="-2.38901">
        <ele>50.796875</ele>
        <time>2019-10-10T10:46:19.000Z</time>
      </trkpt>
      <trkpt lat="48.64279" lon="-2.38891">
        <ele>51.097656</ele>
        <time>2019-10-10T10:46:21.000Z</time>
      </trkpt>
      <trkpt lat="48.64285" lon="-2.38874">
        <ele>51.699219</ele>
        <time>2019-10-10T10:46:24.000Z</time>
      </trkpt>
      <trkpt lat="48.6428" lon="-2.38859">
        <ele>51.796875</ele>
        <time>2019-10-10T10:46:27.000Z</time>
      </trkpt>
      <trkpt lat="48.64271" lon="-2.38848">
        <ele>52.199219</ele>
        <time>2019-10-10T10:46:30.000Z</time>
      </trkpt>
      <trkpt lat="48.64228" lon="-2.38797">
        <ele>50.199219</ele>
        <time>2019-10-10T10:46:45.000Z</time>
      </trkpt>
      <trkpt lat="48.641" lon="-2.3864">
        <ele>50.898438</ele>
        <time>2019-10-10T10:47:21.000Z</time>
      </trkpt>
      <trkpt lat="48.6407" lon="-2.38593">
        <ele>51.097656</ele>
        <time>2019-10-10T10:47:30.000Z</time>
      </trkpt>
      <trkpt lat="48.64056" lon="-2.3857">
        <ele>51.199219</ele>
        <time>2019-10-10T10:47:34.000Z</time>
      </trkpt>
      <trkpt lat="48.64027" lon="-2.38523">
        <ele>51.597656</ele>
        <time>2019-10-10T10:47:43.000Z</time>
      </trkpt>
      <trkpt lat="48.64022" lon="-2.38504">
        <ele>51.796875</ele>
        <time>2019-10-10T10:47:46.000Z</time>
      </trkpt>
      <trkpt lat="48.64025" lon="-2.38485">
        <ele>51.699219</ele>
        <time>2019-10-10T10:47:49.000Z</time>
      </trkpt>
      <trkpt lat="48.64028" lon="-2.38466">
        <ele>51.5</ele>
        <time>2019-10-10T10:47:52.000Z</time>
      </trkpt>
      <trkpt lat="48.6403" lon="-2.38446">
        <ele>51.699219</ele>
        <time>2019-10-10T10:47:55.000Z</time>
      </trkpt>
      <trkpt lat="48.64029" lon="-2.38426">
        <ele>52.097656</ele>
        <time>2019-10-10T10:47:58.000Z</time>
      </trkpt>
      <trkpt lat="48.64027" lon="-2.3841">
        <ele>53.199219</ele>
        <time>2019-10-10T10:48:01.000Z</time>
      </trkpt>
      <trkpt lat="48.64021" lon="-2.38398">
        <ele>53.5</ele>
        <time>2019-10-10T10:48:04.000Z</time>
      </trkpt>
      <trkpt lat="48.64011" lon="-2.38389">
        <ele>53.398438</ele>
        <time>2019-10-10T10:48:07.000Z</time>
      </trkpt>
      <trkpt lat="48.64004" lon="-2.38375">
        <ele>53.199219</ele>
        <time>2019-10-10T10:48:10.000Z</time>
      </trkpt>
      <trkpt lat="48.64001" lon="-2.38356">
        <ele>53.097656</ele>
        <time>2019-10-10T10:48:13.000Z</time>
      </trkpt>
      <trkpt lat="48.64001" lon="-2.38342">
        <ele>52.898438</ele>
        <time>2019-10-10T10:48:15.000Z</time>
      </trkpt>
      <trkpt lat="48.64001" lon="-2.38272">
        <ele>53</ele>
        <time>2019-10-10T10:48:25.000Z</time>
      </trkpt>
      <trkpt lat="48.63998" lon="-2.38243">
        <ele>53.097656</ele>
        <time>2019-10-10T10:48:29.000Z</time>
      </trkpt>
      <trkpt lat="48.6399" lon="-2.38186">
        <ele>52.796875</ele>
        <time>2019-10-10T10:48:37.000Z</time>
      </trkpt>
      <trkpt lat="48.63989" lon="-2.38166">
        <ele>52.796875</ele>
        <time>2019-10-10T10:48:40.000Z</time>
      </trkpt>
      <trkpt lat="48.6399" lon="-2.38138">
        <ele>53</ele>
        <time>2019-10-10T10:48:44.000Z</time>
      </trkpt>
      <trkpt lat="48.63991" lon="-2.3811">
        <ele>53</ele>
        <time>2019-10-10T10:48:48.000Z</time>
      </trkpt>
      <trkpt lat="48.63995" lon="-2.38081">
        <ele>53</ele>
        <time>2019-10-10T10:48:52.000Z</time>
      </trkpt>
      <trkpt lat="48.64001" lon="-2.38052">
        <ele>53.097656</ele>
        <time>2019-10-10T10:48:56.000Z</time>
      </trkpt>
      <trkpt lat="48.64008" lon="-2.38024">
        <ele>53</ele>
        <time>2019-10-10T10:49:00.000Z</time>
      </trkpt>
      <trkpt lat="48.64012" lon="-2.3801">
        <ele>52.898438</ele>
        <time>2019-10-10T10:49:02.000Z</time>
      </trkpt>
      <trkpt lat="48.64016" lon="-2.37996">
        <ele>52.699219</ele>
        <time>2019-10-10T10:49:04.000Z</time>
      </trkpt>
      <trkpt lat="48.64021" lon="-2.37982">
        <ele>52.597656</ele>
        <time>2019-10-10T10:49:06.000Z</time>
      </trkpt>
      <trkpt lat="48.6406" lon="-2.37891">
        <ele>52</ele>
        <time>2019-10-10T10:49:20.000Z</time>
      </trkpt>
      <trkpt lat="48.64104" lon="-2.37747">
        <ele>51.597656</ele>
        <time>2019-10-10T10:49:41.000Z</time>
      </trkpt>
      <trkpt lat="48.64106" lon="-2.37734">
        <ele>51.699219</ele>
        <time>2019-10-10T10:49:44.000Z</time>
      </trkpt>
      <trkpt lat="48.64099" lon="-2.3772">
        <ele>51.699219</ele>
        <time>2019-10-10T10:49:48.000Z</time>
      </trkpt>
      <trkpt lat="48.64091" lon="-2.37711">
        <ele>51.796875</ele>
        <time>2019-10-10T10:49:51.000Z</time>
      </trkpt>
      <trkpt lat="48.64035" lon="-2.37642">
        <ele>51.796875</ele>
        <time>2019-10-10T10:50:09.000Z</time>
      </trkpt>
      <trkpt lat="48.64036" lon="-2.37627">
        <ele>52.097656</ele>
        <time>2019-10-10T10:50:12.000Z</time>
      </trkpt>
      <trkpt lat="48.64042" lon="-2.37614">
        <ele>52.398438</ele>
        <time>2019-10-10T10:50:15.000Z</time>
      </trkpt>
      <trkpt lat="48.6405" lon="-2.37601">
        <ele>52.898438</ele>
        <time>2019-10-10T10:50:18.000Z</time>
      </trkpt>
      <trkpt lat="48.64059" lon="-2.3759">
        <ele>53.398438</ele>
        <time>2019-10-10T10:50:21.000Z</time>
      </trkpt>
      <trkpt lat="48.64069" lon="-2.37578">
        <ele>54</ele>
        <time>2019-10-10T10:50:24.000Z</time>
      </trkpt>
      <trkpt lat="48.64079" lon="-2.37568">
        <ele>54.296875</ele>
        <time>2019-10-10T10:50:27.000Z</time>
      </trkpt>
      <trkpt lat="48.64109" lon="-2.37535">
        <ele>53.199219</ele>
        <time>2019-10-10T10:50:35.000Z</time>
      </trkpt>
      <trkpt lat="48.64144" lon="-2.37488">
        <ele>52.097656</ele>
        <time>2019-10-10T10:50:43.000Z</time>
      </trkpt>
      <trkpt lat="48.64154" lon="-2.37479">
        <ele>51.898438</ele>
        <time>2019-10-10T10:50:45.000Z</time>
      </trkpt>
      <trkpt lat="48.64164" lon="-2.37474">
        <ele>51.796875</ele>
        <time>2019-10-10T10:50:47.000Z</time>
      </trkpt>
      <trkpt lat="48.64175" lon="-2.37472">
        <ele>51.5</ele>
        <time>2019-10-10T10:50:49.000Z</time>
      </trkpt>
      <trkpt lat="48.64196" lon="-2.3747">
        <ele>50.898438</ele>
        <time>2019-10-10T10:50:53.000Z</time>
      </trkpt>
      <trkpt lat="48.64287" lon="-2.37466">
        <ele>48.5</ele>
        <time>2019-10-10T10:51:09.000Z</time>
      </trkpt>
      <trkpt lat="48.64298" lon="-2.37463">
        <ele>48.296875</ele>
        <time>2019-10-10T10:51:11.000Z</time>
      </trkpt>
      <trkpt lat="48.64308" lon="-2.37458">
        <ele>48.296875</ele>
        <time>2019-10-10T10:51:13.000Z</time>
      </trkpt>
      <trkpt lat="48.64317" lon="-2.37452">
        <ele>48.296875</ele>
        <time>2019-10-10T10:51:15.000Z</time>
      </trkpt>
      <trkpt lat="48.64326" lon="-2.37445">
        <ele>48.398438</ele>
        <time>2019-10-10T10:51:17.000Z</time>
      </trkpt>
      <trkpt lat="48.64361" lon="-2.37416">
        <ele>46.898438</ele>
        <time>2019-10-10T10:51:25.000Z</time>
      </trkpt>
      <trkpt lat="48.64371" lon="-2.37409">
        <ele>46.699219</ele>
        <time>2019-10-10T10:51:27.000Z</time>
      </trkpt>
      <trkpt lat="48.64432" lon="-2.3737">
        <ele>44</ele>
        <time>2019-10-10T10:51:37.000Z</time>
      </trkpt>
      <trkpt lat="48.64666" lon="-2.37186">
        <ele>51.097656</ele>
        <time>2019-10-10T10:52:28.000Z</time>
      </trkpt>
      <trkpt lat="48.64675" lon="-2.37181">
        <ele>51.796875</ele>
        <time>2019-10-10T10:52:31.000Z</time>
      </trkpt>
      <trkpt lat="48.64684" lon="-2.37178">
        <ele>52.296875</ele>
        <time>2019-10-10T10:52:34.000Z</time>
      </trkpt>
      <trkpt lat="48.64704" lon="-2.37172">
        <ele>51.097656</ele>
        <time>2019-10-10T10:52:40.000Z</time>
      </trkpt>
      <trkpt lat="48.64716" lon="-2.37163">
        <ele>50.597656</ele>
        <time>2019-10-10T10:52:43.000Z</time>
      </trkpt>
      <trkpt lat="48.64722" lon="-2.37152">
        <ele>50.597656</ele>
        <time>2019-10-10T10:52:45.000Z</time>
      </trkpt>
      <trkpt lat="48.64725" lon="-2.37139">
        <ele>50.398438</ele>
        <time>2019-10-10T10:52:47.000Z</time>
      </trkpt>
      <trkpt lat="48.6472" lon="-2.37122">
        <ele>50.296875</ele>
        <time>2019-10-10T10:52:50.000Z</time>
      </trkpt>
      <trkpt lat="48.6471" lon="-2.3711">
        <ele>50.199219</ele>
        <time>2019-10-10T10:52:53.000Z</time>
      </trkpt>
      <trkpt lat="48.64666" lon="-2.37054">
        <ele>49.097656</ele>
        <time>2019-10-10T10:53:05.000Z</time>
      </trkpt>
      <trkpt lat="48.64665" lon="-2.3704">
        <ele>48.597656</ele>
        <time>2019-10-10T10:53:07.000Z</time>
      </trkpt>
      <trkpt lat="48.64668" lon="-2.37024">
        <ele>47.898438</ele>
        <time>2019-10-10T10:53:09.000Z</time>
      </trkpt>
      <trkpt lat="48.64671" lon="-2.37007">
        <ele>47.5</ele>
        <time>2019-10-10T10:53:11.000Z</time>
      </trkpt>
      <trkpt lat="48.64671" lon="-2.36991">
        <ele>46.597656</ele>
        <time>2019-10-10T10:53:13.000Z</time>
      </trkpt>
      <trkpt lat="48.64674" lon="-2.36975">
        <ele>46.296875</ele>
        <time>2019-10-10T10:53:15.000Z</time>
      </trkpt>
      <trkpt lat="48.64679" lon="-2.3696">
        <ele>46.097656</ele>
        <time>2019-10-10T10:53:17.000Z</time>
      </trkpt>
      <trkpt lat="48.64682" lon="-2.36943">
        <ele>45.898438</ele>
        <time>2019-10-10T10:53:19.000Z</time>
      </trkpt>
      <trkpt lat="48.64715" lon="-2.36773">
        <ele>45.597656</ele>
        <time>2019-10-10T10:53:45.000Z</time>
      </trkpt>
      <trkpt lat="48.64719" lon="-2.3676">
        <ele>45.097656</ele>
        <time>2019-10-10T10:53:48.000Z</time>
      </trkpt>
      <trkpt lat="48.64728" lon="-2.36754">
        <ele>45.382813</ele>
        <time>2019-10-10T10:54:09.000Z</time>
      </trkpt>
    </trkseg>
  </trk>
</gpx>